Darstellungsparameter: Aktuell verwendete Einstellungen:
Skalierung der Graphiken ... ?
xyx+y,   Skalierungsfaktor:      Skalierung: Modus: x, Faktor: 1
Darstellungszeitraum ... ?
Vom - - bis: - -   Zeitraum: 04.11.2007 - 17.11.2007
Min/Max/Avg-Anzeige ... ?
Zeige MMA aktuell
Zeige MMA Monat
Zeige MMA alles
Zeige --A aktuell
Zeige --A Monat
Zeige --A alles
Keine MMA-Anzeige
MMA:
Average (ber die Originaldaten)
MMA-Basis: 17.04.2019 - 19.05.2019
Quicknavigation für Darstellung... ?
Tage:      1T, 2T, 3T, 5T -1T -2T -3T -5T +1T +2T +3T +5T
Wochen: 1W, 2W, 3W -1W -2W -3W +1W +2W +3W
Monate: 1M, 3M, 6M -1M -3M -6M +1M +3M +6M
Jahre:    1J, 3J, 5J, 10J -1J -3J -5J -10J +1J +3J +5J +10J
Nutze für die Darstellung ... ?
Originaldaten oder Mittelwerte auf ...
Stundenbasis Tagesbasis Wochenbasis
Monatsbasis Jahresbasis      Datenbasis: Original-Daten
Darstellen als:
Statistik (Auto) Statistik J:M      Darstellung:
Zur Graphik,    zurück zur Übersicht aller Sensoren.
 
Tabellarische Datenbersicht: ?
 
Sensor: Nr:Datum:Temp:Abs-Feuchte:Windchill:Wind:
Aussen-T/F 1 04-11-2007 00:00:02 10.5 C 8.92 g/m*3 10.5 C 0 km/h
2 04-11-2007 00:12:03 10.7 C 9.13 g/m*3 10.7 C 0 km/h
3 04-11-2007 00:24:03 10.9 C 9.25 g/m*3 10.9 C 0 km/h
4 04-11-2007 00:36:03 11 C 9.21 g/m*3 11 C 0 km/h
5 04-11-2007 00:48:02 11 C 9.11 g/m*3 11 C 0 km/h
6 04-11-2007 01:00:02 11 C 9.01 g/m*3 11 C 0 km/h
7 04-11-2007 01:12:02 10.9 C 8.85 g/m*3 10.9 C 0 km/h
8 04-11-2007 01:24:02 10.8 C 8.7 g/m*3 10.8 C 0 km/h
9 04-11-2007 01:36:02 10.8 C 8.5 g/m*3 10.8 C 0 km/h
10 04-11-2007 01:48:02 10.8 C 8.2 g/m*3 10.8 C 0 km/h
11 04-11-2007 02:00:02 10.7 C 8.15 g/m*3 10.7 C 0 km/h
12 04-11-2007 02:12:02 10.6 C 8.2 g/m*3 10.6 C 0 km/h
13 04-11-2007 02:24:02 10.5 C 8.15 g/m*3 10.5 C 0 km/h
14 04-11-2007 02:36:02 10.4 C 8.1 g/m*3 10.4 C 0 km/h
15 04-11-2007 02:49:03 10.4 C 8 g/m*3 10.4 C 0 km/h
16 04-11-2007 03:01:03 10.3 C 7.95 g/m*3 10.3 C 0 km/h
17 04-11-2007 03:13:04 10.3 C 7.85 g/m*3 10.3 C 0 km/h
18 04-11-2007 03:25:04 10.1 C 7.75 g/m*3 10.1 C 0 km/h
19 04-11-2007 03:37:02 10.2 C 7.61 g/m*3 10.2 C 0 km/h
20 04-11-2007 03:49:02 10.2 C 7.52 g/m*3 10.2 C 0 km/h
21 04-11-2007 04:01:02 10.1 C 7.47 g/m*3 10.1 C 0 km/h
22 04-11-2007 04:13:02 10 C 7.42 g/m*3 10 C 0 km/h
23 04-11-2007 04:25:02 10 C 7.52 g/m*3 10 C 0 km/h
24 04-11-2007 04:37:02 9.9 C 7.56 g/m*3 9.9 C 0 km/h
25 04-11-2007 04:49:02 9.9 C 7.56 g/m*3 9.9 C 0 km/h
Sensor: Nr:Datum:Temp:Abs-Feuchte:Windchill:Wind:
Aussen-T/F 26 04-11-2007 05:01:02 9.9 C 7.47 g/m*3 9.9 C 0 km/h
27 04-11-2007 05:13:02 9.8 C 7.52 g/m*3 9.8 C 0 km/h
28 04-11-2007 05:25:01 9.8 C 7.61 g/m*3 9.8 C 0 km/h
29 04-11-2007 05:37:02 9.8 C 7.61 g/m*3 9.8 C 0 km/h
30 04-11-2007 05:49:02 9.7 C 7.65 g/m*3 9.7 C 0 km/h
31 04-11-2007 06:01:01 9.7 C 7.65 g/m*3 9.7 C 0 km/h
32 04-11-2007 06:13:01 9.7 C 7.65 g/m*3 9.7 C 0 km/h
33 04-11-2007 06:25:02 9.7 C 7.65 g/m*3 9.7 C 0 km/h
34 04-11-2007 06:37:02 9.6 C 7.6 g/m*3 9.6 C 0 km/h
35 04-11-2007 06:49:02 9.6 C 7.6 g/m*3 9.6 C 0 km/h
36 04-11-2007 07:01:01 9.6 C 7.6 g/m*3 9.6 C 0 km/h
37 04-11-2007 07:13:01 9.5 C 7.46 g/m*3 9.5 C 0 km/h
38 04-11-2007 07:25:02 9.5 C 7.46 g/m*3 9.5 C 0 km/h
39 04-11-2007 07:37:02 9.4 C 7.42 g/m*3 9.4 C 0 km/h
40 04-11-2007 07:49:02 9.4 C 7.42 g/m*3 9.4 C 0 km/h
41 04-11-2007 08:01:02 9.4 C 7.42 g/m*3 9.4 C 0 km/h
42 04-11-2007 08:13:03 9.5 C 7.46 g/m*3 9.5 C 0 km/h
43 04-11-2007 08:25:02 9.6 C 7.6 g/m*3 9.6 C 0 km/h
44 04-11-2007 08:37:01 9.5 C 7.55 g/m*3 9.5 C 0 km/h
45 04-11-2007 08:49:01 9.4 C 7.6 g/m*3 9.4 C 0 km/h
46 04-11-2007 09:01:02 9.5 C 7.65 g/m*3 9.5 C 0 km/h
47 04-11-2007 09:13:02 9.8 C 7.89 g/m*3 9.8 C 0 km/h
48 04-11-2007 09:25:02 10 C 7.8 g/m*3 10 C 0 km/h
49 04-11-2007 09:37:02 10.2 C 7.61 g/m*3 10.2 C 0 km/h
50 04-11-2007 09:49:02 10.4 C 7.61 g/m*3 10.4 C 0 km/h
Sensor: Nr:Datum:Temp:Abs-Feuchte:Windchill:Wind:
Aussen-T/F 51 04-11-2007 10:01:02 10.7 C 7.66 g/m*3 10.7 C 0 km/h
52 04-11-2007 10:13:02 11 C 7.51 g/m*3 11 C 0 km/h
53 04-11-2007 10:25:02 10.8 C 7.31 g/m*3 10.8 C 0 km/h
54 04-11-2007 10:37:02 11 C 7.31 g/m*3 11 C 0 km/h
55 04-11-2007 10:49:02 11 C 7.21 g/m*3 11 C 0 km/h
56 04-11-2007 11:01:02 11.1 C 7.25 g/m*3 11.1 C 0 km/h
57 04-11-2007 11:13:02 11.5 C 7.44 g/m*3 11.5 C 0 km/h
58 04-11-2007 11:25:02 11.3 C 7.14 g/m*3 11.3 C 0 km/h
59 04-11-2007 11:37:01 11.6 C 7.17 g/m*3 11.6 C 0 km/h
60 04-11-2007 11:49:02 11.7 C 6.9 g/m*3 11.7 C 0 km/h
61 04-11-2007 12:01:02 11.9 C 6.99 g/m*3 11.9 C 0 km/h
62 04-11-2007 12:13:02 11.9 C 6.67 g/m*3 11.9 C 0 km/h
63 04-11-2007 12:25:02 12.4 C 6.12 g/m*3 12.4 C 0 km/h
64 04-11-2007 12:37:02 12.4 C 4.81 g/m*3 12.4 C 0 km/h
65 04-11-2007 12:49:02 12.5 C 4.73 g/m*3 12.5 C 0 km/h
66 04-11-2007 13:01:02 12.4 C 5.03 g/m*3 12.4 C 0 km/h
67 04-11-2007 13:13:02 11.9 C 5.51 g/m*3 11.9 C 0 km/h
68 04-11-2007 13:25:01 11.8 C 5.26 g/m*3 11.8 C 0 km/h
69 04-11-2007 13:37:02 12.4 C 5.57 g/m*3 12.4 C 0 km/h
70 04-11-2007 13:49:02 12.1 C 4.72 g/m*3 12.1 C 0 km/h
71 04-11-2007 14:01:01 11.5 C 5.78 g/m*3 11.5 C 0 km/h
72 04-11-2007 14:13:02 11.4 C 5.75 g/m*3 11.4 C 0 km/h
73 04-11-2007 14:25:01 11.3 C 5.41 g/m*3 11.3 C 0 km/h
74 04-11-2007 14:37:01 11.6 C 5.51 g/m*3 11.6 C 0 km/h
75 04-11-2007 14:49:02 11.9 C 5.51 g/m*3 11.9 C 0 km/h
Sensor: Nr:Datum:Temp:Abs-Feuchte:Windchill:Wind:
Aussen-T/F 76 04-11-2007 15:01:02 11.8 C 4.74 g/m*3 11.8 C 0 km/h
77 04-11-2007 15:13:02 11.7 C 4.92 g/m*3 11.7 C 0 km/h
78 04-11-2007 15:25:02 11.5 C 4.65 g/m*3 11.5 C 0 km/h
79 04-11-2007 15:37:02 11.4 C 4.93 g/m*3 11.4 C 0 km/h
80 04-11-2007 15:49:01 11.3 C 4.9 g/m*3 11.3 C 0 km/h
81 04-11-2007 16:01:01 11.1 C 4.94 g/m*3 11.1 C 0 km/h
82 04-11-2007 16:13:01 11 C 5.1 g/m*3 11 C 0 km/h
83 04-11-2007 16:25:01 10.8 C 5.24 g/m*3 10.8 C 0 km/h
84 04-11-2007 16:37:02 10.7 C 5.3 g/m*3 10.7 C 0 km/h
85 04-11-2007 16:49:02 10.7 C 5.4 g/m*3 10.7 C 0 km/h
86 04-11-2007 17:01:02 10.6 C 5.47 g/m*3 10.6 C 0 km/h
87 04-11-2007 17:13:02 10.5 C 5.63 g/m*3 10.5 C 0 km/h
88 04-11-2007 17:25:02 10.4 C 5.78 g/m*3 10.4 C 0 km/h
89 04-11-2007 17:37:02 10.3 C 5.84 g/m*3 10.3 C 0 km/h
90 04-11-2007 17:49:02 10.2 C 5.9 g/m*3 10.2 C 0 km/h
91 04-11-2007 18:01:02 10.2 C 6.09 g/m*3 10.2 C 0 km/h
92 04-11-2007 18:13:02 10 C 5.92 g/m*3 10 C 0 km/h
93 04-11-2007 18:25:02 10 C 6.01 g/m*3 10 C 0 km/h
94 04-11-2007 18:37:02 10 C 6.11 g/m*3 10 C 0 km/h
95 04-11-2007 18:49:02 10 C 6.01 g/m*3 10 C 0 km/h
96 04-11-2007 19:01:02 9.8 C 6.12 g/m*3 9.8 C 0 km/h
97 04-11-2007 19:13:02 9.8 C 6.12 g/m*3 9.8 C 0 km/h
98 04-11-2007 19:25:02 9.7 C 6.27 g/m*3 9.7 C 0 km/h
99 04-11-2007 19:37:02 9.7 C 6.36 g/m*3 9.7 C 0 km/h
100 04-11-2007 19:49:02 9.7 C 6.36 g/m*3 9.7 C 0 km/h
Sensor: Nr:Datum:Temp:Abs-Feuchte:Windchill:Wind:
Aussen-T/F 101 04-11-2007 20:01:02 9.7 C 6.45 g/m*3 9.7 C 0 km/h
102 04-11-2007 20:13:02 9.7 C 6.45 g/m*3 9.7 C 0 km/h
103 04-11-2007 20:25:01 9.6 C 6.5 g/m*3 9.6 C 0 km/h
104 04-11-2007 20:37:02 9.6 C 6.5 g/m*3 9.6 C 0 km/h
105 04-11-2007 20:49:02 9.5 C 6.46 g/m*3 9.5 C 0 km/h
106 04-11-2007 21:01:02 9.5 C 6.55 g/m*3 9.5 C 0 km/h
107 04-11-2007 21:13:02 9.5 C 6.55 g/m*3 9.5 C 0 km/h
108 04-11-2007 21:25:01 9.4 C 6.51 g/m*3 9.4 C 0 km/h
109 04-11-2007 21:37:01 9.4 C 6.6 g/m*3 9.4 C 0 km/h
110 04-11-2007 21:49:01 9.4 C 6.51 g/m*3 9.4 C 0 km/h
111 04-11-2007 22:01:02 9.1 C 6.3 g/m*3 9.1 C 0 km/h
112 04-11-2007 22:13:02 9 C 6.08 g/m*3 9 C 0 km/h
113 04-11-2007 22:25:01 9 C 5.91 g/m*3 9 C 0 km/h
114 04-11-2007 22:37:01 8.9 C 6.04 g/m*3 8.9 C 0 km/h
115 04-11-2007 22:49:01 8.8 C 5.92 g/m*3 8.8 C 0 km/h
116 04-11-2007 23:01:02 8.9 C 5.96 g/m*3 8.9 C 0 km/h
117 04-11-2007 23:13:02 8.8 C 6.01 g/m*3 8.8 C 0 km/h
118 04-11-2007 23:25:02 8.8 C 6.18 g/m*3 8.8 C 0 km/h
119 04-11-2007 23:37:01 8.7 C 6.23 g/m*3 8.7 C 0 km/h
120 04-11-2007 23:49:02 8.7 C 6.31 g/m*3 8.7 C 0 km/h
121 05-11-2007 00:01:01 8.7 C 6.31 g/m*3 8.7 C 0 km/h
122 05-11-2007 00:13:01 8.7 C 6.23 g/m*3 8.7 C 0 km/h
123 05-11-2007 00:25:02 8.6 C 6.19 g/m*3 8.6 C 0 km/h
124 05-11-2007 00:37:01 8.6 C 6.27 g/m*3 8.6 C 0 km/h
125 05-11-2007 00:49:02 8.5 C 6.32 g/m*3 8.5 C 0 km/h
Sensor: Nr:Datum:Temp:Abs-Feuchte:Windchill:Wind:
Aussen-T/F 126 05-11-2007 01:01:02 8.5 C 6.23 g/m*3 8.5 C 0 km/h
127 05-11-2007 01:13:02 8.5 C 6.23 g/m*3 8.5 C 0 km/h
128 05-11-2007 01:25:02 8.4 C 6.11 g/m*3 8.4 C 0 km/h
129 05-11-2007 01:37:02 8.4 C 6.02 g/m*3 8.4 C 0 km/h
130 05-11-2007 01:49:02 8.4 C 6.02 g/m*3 8.4 C 0 km/h
131 05-11-2007 02:01:01 8.4 C 6.02 g/m*3 8.4 C 0 km/h
132 05-11-2007 02:13:01 8.4 C 6.02 g/m*3 8.4 C 0 km/h
133 05-11-2007 02:25:01 8.3 C 5.9 g/m*3 8.3 C 0 km/h
134 05-11-2007 02:37:02 8.3 C 5.9 g/m*3 8.3 C 0 km/h
135 05-11-2007 02:50:03 8.2 C 6.03 g/m*3 8.2 C 0 km/h
136 05-11-2007 03:02:03 8.3 C 6.07 g/m*3 8.3 C 0 km/h
137 05-11-2007 03:14:04 8.2 C 6.11 g/m*3 8.2 C 0 km/h
138 05-11-2007 03:26:04 8.2 C 6.11 g/m*3 8.2 C 0 km/h
139 05-11-2007 03:38:02 8.1 C 6.16 g/m*3 8.1 C 0 km/h
140 05-11-2007 03:50:02 8 C 6.2 g/m*3 8 C 0 km/h
141 05-11-2007 04:02:01 8 C 6.2 g/m*3 8 C 0 km/h
142 05-11-2007 04:14:01 8 C 6.2 g/m*3 8 C 0 km/h
143 05-11-2007 04:26:02 8 C 6.28 g/m*3 8 C 0 km/h
144 05-11-2007 04:38:02 7.9 C 6.32 g/m*3 7.9 C 0 km/h
145 05-11-2007 04:50:03 7.9 C 6.32 g/m*3 7.9 C 0 km/h
146 05-11-2007 05:02:02 7.9 C 6.32 g/m*3 7.9 C 0 km/h
147 05-11-2007 05:14:02 7.9 C 6.41 g/m*3 7.9 C 0 km/h
148 05-11-2007 05:26:02 7.8 C 6.37 g/m*3 7.8 C 0 km/h
149 05-11-2007 05:38:02 7.8 C 6.37 g/m*3 7.8 C 0 km/h
150 05-11-2007 05:50:02 7.7 C 6.32 g/m*3 7.7 C 0 km/h
Sensor: Nr:Datum:Temp:Abs-Feuchte:Windchill:Wind:
Aussen-T/F 151 05-11-2007 06:02:03 7.6 C 6.28 g/m*3 7.6 C 0 km/h
152 05-11-2007 06:14:03 7.5 C 6.08 g/m*3 7.5 C 0 km/h
153 05-11-2007 06:26:02 7.5 C 6 g/m*3 7.5 C 0 km/h
154 05-11-2007 06:38:02 7.4 C 5.96 g/m*3 7.4 C 0 km/h
155 05-11-2007 06:50:01 7.4 C 5.88 g/m*3 7.4 C 0 km/h
156 05-11-2007 07:02:01 7.4 C 5.88 g/m*3 7.4 C 0 km/h
157 05-11-2007 07:14:01 7.4 C 5.88 g/m*3 7.4 C 0 km/h
158 05-11-2007 07:26:01 7.4 C 5.88 g/m*3 7.4 C 0 km/h
159 05-11-2007 07:38:02 7.4 C 5.96 g/m*3 7.4 C 0 km/h
160 05-11-2007 07:50:02 7.4 C 6.04 g/m*3 7.4 C 0 km/h
161 05-11-2007 08:02:02 7.5 C 6.24 g/m*3 7.5 C 0 km/h
162 05-11-2007 08:14:02 7.5 C 6.24 g/m*3 7.5 C 0 km/h
163 05-11-2007 08:26:02 7.6 C 6.28 g/m*3 7.6 C 0 km/h
164 05-11-2007 08:38:02 7.8 C 6.37 g/m*3 7.8 C 0 km/h
165 05-11-2007 08:50:01 7.9 C 6.41 g/m*3 7.9 C 0 km/h
166 05-11-2007 09:02:02 8.1 C 6.32 g/m*3 8.1 C 0 km/h
167 05-11-2007 09:14:02 8.3 C 6.32 g/m*3 8.3 C 0 km/h
168 05-11-2007 09:26:02 8.4 C 6.28 g/m*3 8.4 C 0 km/h
169 05-11-2007 09:38:02 8.5 C 6.32 g/m*3 8.5 C 0 km/h
170 05-11-2007 09:50:02 8.8 C 6.44 g/m*3 8.8 C 0 km/h
171 05-11-2007 10:02:01 8.9 C 6.31 g/m*3 8.9 C 0 km/h
172 05-11-2007 10:14:01 9.1 C 6.21 g/m*3 9.1 C 0 km/h
173 05-11-2007 10:26:01 9.1 C 6.21 g/m*3 9.1 C 0 km/h
174 05-11-2007 10:38:02 9.2 C 6.25 g/m*3 9.2 C 0 km/h
175 05-11-2007 10:50:02 9.4 C 6.24 g/m*3 9.4 C 0 km/h
Sensor: Nr:Datum:Temp:Abs-Feuchte:Windchill:Wind:
Aussen-T/F 176 05-11-2007 11:02:02 9.5 C 6.28 g/m*3 9.5 C 0 km/h
177 05-11-2007 11:14:02 9.8 C 6.4 g/m*3 9.8 C 0 km/h
178 05-11-2007 11:26:02 9.8 C 6.22 g/m*3 9.8 C 0 km/h
179 05-11-2007 11:38:03 9.9 C 6.16 g/m*3 9.9 C 0 km/h
180 05-11-2007 11:50:02 10 C 5.83 g/m*3 10 C 0 km/h
181 05-11-2007 12:02:02 10.4 C 4.53 g/m*3 10.4 C 0 km/h
182 05-11-2007 12:14:02 10.5 C 5.14 g/m*3 10.5 C 0 km/h
183 05-11-2007 12:26:02 10.4 C 4.82 g/m*3 10.4 C 0 km/h
184 05-11-2007 12:38:02 10.3 C 4.5 g/m*3 10.3 C 0 km/h
185 05-11-2007 12:50:02 10.3 C 4.5 g/m*3 10.3 C 0 km/h
186 05-11-2007 13:02:02 10.5 C 4.56 g/m*3 10.5 C 0 km/h
187 05-11-2007 13:14:02 10.6 C 4.39 g/m*3 10.6 C 0 km/h
188 05-11-2007 13:26:02 10.7 C 4.13 g/m*3 10.7 C 0 km/h
189 05-11-2007 13:38:02 10.7 C 4.22 g/m*3 10.7 C 0 km/h
190 05-11-2007 13:50:02 10.6 C 4.29 g/m*3 10.6 C 0 km/h
191 05-11-2007 14:02:02 10.6 C 4 g/m*3 10.6 C 0 km/h
192 05-11-2007 14:14:02 10.5 C 3.98 g/m*3 10.5 C 0 km/h
193 05-11-2007 14:26:02 10.3 C 3.93 g/m*3 10.3 C 0 km/h
194 05-11-2007 14:38:02 10.4 C 3.95 g/m*3 10.4 C 0 km/h
195 05-11-2007 14:50:02 10.2 C 3.9 g/m*3 10.2 C 0 km/h
196 05-11-2007 15:02:02 10.2 C 4 g/m*3 10.2 C 0 km/h
197 05-11-2007 15:14:02 10.2 C 4.09 g/m*3 10.2 C 0 km/h
198 05-11-2007 15:26:02 10.3 C 4.21 g/m*3 10.3 C 0 km/h
199 05-11-2007 15:38:02 10.2 C 4.19 g/m*3 10.2 C 0 km/h
200 05-11-2007 15:50:02 10.1 C 4.07 g/m*3 10.1 C 0 km/h
Sensor: Nr:Datum:Temp:Abs-Feuchte:Windchill:Wind:
Aussen-T/F 201 05-11-2007 16:02:02 10 C 4.13 g/m*3 10 C 0 km/h
202 05-11-2007 16:14:02 9.9 C 4.29 g/m*3 9.9 C 0 km/h
203 05-11-2007 16:26:01 9.7 C 4.24 g/m*3 9.7 C 0 km/h
204 05-11-2007 16:38:02 9.6 C 4.21 g/m*3 9.6 C 0 km/h
205 05-11-2007 16:50:02 9.1 C 4.08 g/m*3 9.1 C 0 km/h
206 05-11-2007 17:02:02 8.7 C 4.24 g/m*3 8.7 C 0 km/h
207 05-11-2007 17:14:02 8.1 C 4.33 g/m*3 8.1 C 0 km/h
208 05-11-2007 17:26:01 7.8 C 4.41 g/m*3 7.8 C 0 km/h
209 05-11-2007 17:38:03 7.6 C 4.43 g/m*3 7.6 C 0 km/h
210 05-11-2007 17:50:02 7.5 C 4.4 g/m*3 7.5 C 0 km/h
211 05-11-2007 18:02:02 7.5 C 4.4 g/m*3 7.5 C 0 km/h
212 05-11-2007 18:14:02 7.6 C 4.51 g/m*3 7.6 C 0 km/h
213 05-11-2007 18:26:02 7.6 C 4.51 g/m*3 7.6 C 0 km/h
214 05-11-2007 18:38:02 7.7 C 4.62 g/m*3 7.7 C 0 km/h
215 05-11-2007 18:50:02 7.8 C 4.57 g/m*3 7.8 C 0 km/h
216 05-11-2007 19:02:02 7.7 C 4.62 g/m*3 7.7 C 0 km/h
217 05-11-2007 19:14:02 7.7 C 4.7 g/m*3 7.7 C 0 km/h
218 05-11-2007 19:26:02 7.8 C 4.65 g/m*3 7.8 C 0 km/h
219 05-11-2007 19:38:03 7.8 C 4.65 g/m*3 7.8 C 0 km/h
220 05-11-2007 19:50:02 7.8 C 4.65 g/m*3 7.8 C 0 km/h
221 05-11-2007 20:02:02 7.8 C 4.73 g/m*3 7.8 C 0 km/h
222 05-11-2007 20:14:03 7.6 C 4.75 g/m*3 7.6 C 0 km/h
223 05-11-2007 20:26:02 7.6 C 4.75 g/m*3 7.6 C 0 km/h
224 05-11-2007 20:38:02 7.8 C 4.82 g/m*3 7.8 C 0 km/h
225 05-11-2007 20:50:02 7.9 C 4.76 g/m*3 7.9 C 0 km/h
Sensor: Nr:Datum:Temp:Abs-Feuchte:Windchill:Wind:
Aussen-T/F 226 05-11-2007 21:02:02 8 C 4.71 g/m*3 8 C 0 km/h
227 05-11-2007 21:14:02 8 C 4.71 g/m*3 8 C 0 km/h
228 05-11-2007 21:26:02 8.1 C 4.66 g/m*3 8.1 C 0 km/h
229 05-11-2007 21:38:02 8.1 C 4.74 g/m*3 8.1 C 0 km/h
230 05-11-2007 21:50:02 8.1 C 4.66 g/m*3 8.1 C 0 km/h
231 05-11-2007 22:02:02 8.2 C 4.61 g/m*3 8.2 C 0 km/h
232 05-11-2007 22:14:02 8.3 C 4.72 g/m*3 8.3 C 0 km/h
233 05-11-2007 22:26:03 8.5 C 4.7 g/m*3 8.5 C 0 km/h
234 05-11-2007 22:38:02 8.7 C 4.58 g/m*3 8.7 C 0 km/h
235 05-11-2007 22:50:02 8.9 C 4.82 g/m*3 8.9 C 0 km/h
236 05-11-2007 23:02:01 8.9 C 4.82 g/m*3 8.9 C 0 km/h
237 05-11-2007 23:14:01 8.6 C 4.9 g/m*3 8.6 C 0 km/h
238 05-11-2007 23:26:01 8.5 C 5.12 g/m*3 8.5 C 0 km/h
239 05-11-2007 23:38:02 8.6 C 5.24 g/m*3 8.6 C 0 km/h
240 05-11-2007 23:50:02 8.3 C 5.23 g/m*3 8.3 C 0 km/h
241 06-11-2007 00:02:01 8.4 C 5.26 g/m*3 8.4 C 0 km/h
242 06-11-2007 00:14:01 8.5 C 5.21 g/m*3 8.5 C 0 km/h
243 06-11-2007 00:26:01 8.6 C 5.24 g/m*3 8.6 C 0 km/h
244 06-11-2007 00:38:01 8.6 C 5.24 g/m*3 8.6 C 0 km/h
245 06-11-2007 00:50:02 8.4 C 5.43 g/m*3 8.4 C 0 km/h
246 06-11-2007 01:02:02 8 C 5.62 g/m*3 8 C 0 km/h
247 06-11-2007 01:14:02 8 C 5.7 g/m*3 8 C 0 km/h
248 06-11-2007 01:26:02 7.7 C 6.08 g/m*3 7.7 C 0 km/h
249 06-11-2007 01:38:02 7.3 C 6.32 g/m*3 7.3 C 0 km/h
250 06-11-2007 01:50:02 7.1 C 6.47 g/m*3 7.1 C 0 km/h
Sensor: Nr:Datum:Temp:Abs-Feuchte:Windchill:Wind:
Aussen-T/F 251 06-11-2007 02:02:02 7 C 6.59 g/m*3 7 C 0 km/h
252 06-11-2007 02:14:02 7 C 6.74 g/m*3 7 C 0 km/h
253 06-11-2007 02:26:01 7 C 6.9 g/m*3 7 C 0 km/h
254 06-11-2007 02:38:01 7.1 C 6.94 g/m*3 7.1 C 0 km/h
255 06-11-2007 02:51:03 7.1 C 7.02 g/m*3 7.1 C 0 km/h
256 06-11-2007 03:03:03 7.2 C 7.06 g/m*3 7.2 C 0 km/h
257 06-11-2007 03:15:03 7.6 C 7.33 g/m*3 7.6 C 0 km/h
258 06-11-2007 03:27:03 7.7 C 7.38 g/m*3 7.7 C 0 km/h
259 06-11-2007 03:39:02 8 C 7.44 g/m*3 8 C 0 km/h
260 06-11-2007 03:51:02 8.5 C 7.43 g/m*3 8.5 C 0 km/h
261 06-11-2007 04:03:01 8.3 C 7.16 g/m*3 8.3 C 0 km/h
262 06-11-2007 04:15:01 8.5 C 7 g/m*3 8.5 C 0 km/h
263 06-11-2007 04:27:01 7.9 C 6.74 g/m*3 7.9 C 0 km/h
264 06-11-2007 04:39:02 7.9 C 6.74 g/m*3 7.9 C 0 km/h
265 06-11-2007 04:51:02 7.7 C 6.65 g/m*3 7.7 C 0 km/h
266 06-11-2007 05:03:03 7.6 C 6.69 g/m*3 7.6 C 0 km/h
267 06-11-2007 05:15:02 7.6 C 6.61 g/m*3 7.6 C 0 km/h
268 06-11-2007 05:27:02 7.7 C 6.57 g/m*3 7.7 C 0 km/h
269 06-11-2007 05:39:02 7.4 C 6.52 g/m*3 7.4 C 0 km/h
270 06-11-2007 05:51:02 7.3 C 6.56 g/m*3 7.3 C 0 km/h
271 06-11-2007 06:03:01 7.1 C 6.55 g/m*3 7.1 C 0 km/h
272 06-11-2007 06:15:01 7.2 C 6.59 g/m*3 7.2 C 0 km/h
273 06-11-2007 06:27:01 7.5 C 6.56 g/m*3 7.5 C 0 km/h
274 06-11-2007 06:39:02 7.5 C 6.56 g/m*3 7.5 C 0 km/h
275 06-11-2007 06:51:02 7.7 C 6.57 g/m*3 7.7 C 0 km/h
Sensor: Nr:Datum:Temp:Abs-Feuchte:Windchill:Wind:
Aussen-T/F 276 06-11-2007 07:03:02 7.6 C 6.44 g/m*3 7.6 C 0 km/h
277 06-11-2007 07:15:02 7.5 C 6.32 g/m*3 7.5 C 0 km/h
278 06-11-2007 07:27:02 7.6 C 6.28 g/m*3 7.6 C 0 km/h
279 06-11-2007 07:39:02 7.8 C 6.2 g/m*3 7.8 C 0 km/h
280 06-11-2007 07:51:01 7.9 C 6.16 g/m*3 7.9 C 0 km/h
281 06-11-2007 08:03:02 7.8 C 6.12 g/m*3 7.8 C 0 km/h
282 06-11-2007 08:15:02 7.8 C 6.2 g/m*3 7.8 C 0 km/h
283 06-11-2007 08:27:02 7.9 C 6.24 g/m*3 7.9 C 0 km/h
284 06-11-2007 08:39:01 8 C 6.12 g/m*3 8 C 0 km/h
285 06-11-2007 08:51:02 7.8 C 6.28 g/m*3 7.8 C 0 km/h
286 06-11-2007 09:03:02 7.6 C 6.28 g/m*3 7.6 C 0 km/h
287 06-11-2007 09:15:02 7.6 C 6.28 g/m*3 7.6 C 0 km/h
288 06-11-2007 09:27:02 7.9 C 6.32 g/m*3 7.9 C 0 km/h
289 06-11-2007 09:39:02 8.3 C 6.15 g/m*3 8.3 C 0 km/h
290 06-11-2007 09:51:02 8.4 C 6.28 g/m*3 8.4 C 0 km/h
291 06-11-2007 10:03:02 8.8 C 6.18 g/m*3 8.8 C 0 km/h
292 06-11-2007 10:15:02 9 C 6.08 g/m*3 9 C 0 km/h
293 06-11-2007 10:27:02 9.1 C 6.03 g/m*3 9.1 C 0 km/h
294 06-11-2007 10:39:02 9.3 C 5.84 g/m*3 9.3 C 0 km/h
295 06-11-2007 10:51:02 9.4 C 5.79 g/m*3 9.4 C 0 km/h
296 06-11-2007 11:03:02 9.6 C 5.86 g/m*3 9.6 C 0 km/h
297 06-11-2007 11:15:01 9.7 C 5.72 g/m*3 9.7 C 0 km/h
298 06-11-2007 11:27:01 9.9 C 5.51 g/m*3 9.9 C 0 km/h
299 06-11-2007 11:39:01 9.9 C 5.6 g/m*3 9.9 C 0 km/h
300 06-11-2007 11:51:01 9.8 C 5.38 g/m*3 9.8 C 0 km/h
Sensor: Nr:Datum:Temp:Abs-Feuchte:Windchill:Wind:
Aussen-T/F 301 06-11-2007 12:03:02 9.7 C 5.44 g/m*3 9.7 C 0 km/h
302 06-11-2007 12:15:01 9.5 C 5.55 g/m*3 9.5 C 0 km/h
303 06-11-2007 12:27:01 9.5 C 5.55 g/m*3 9.5 C 0 km/h
304 06-11-2007 12:39:01 9.6 C 5.5 g/m*3 9.6 C 0 km/h
305 06-11-2007 12:51:02 9.9 C 5.42 g/m*3 9.9 C 0 km/h
306 06-11-2007 13:03:03 9.8 C 5.29 g/m*3 9.8 C 0 km/h
307 06-11-2007 13:15:02 8.3 C 5.9 g/m*3 8.3 C 0 km/h
308 06-11-2007 13:27:02 8.2 C 6.28 g/m*3 8.2 C 0 km/h
309 06-11-2007 13:39:02 8.6 C 6.19 g/m*3 8.6 C 0 km/h
310 06-11-2007 13:51:02 9 C 5.91 g/m*3 9 C 0 km/h
311 06-11-2007 14:03:02 9.4 C 5.79 g/m*3 9.4 C 0 km/h
312 06-11-2007 14:15:02 9.4 C 5.61 g/m*3 9.4 C 0 km/h
313 06-11-2007 14:27:02 9.8 C 5.75 g/m*3 9.8 C 0 km/h
314 06-11-2007 14:39:02 9.7 C 5.53 g/m*3 9.7 C 0 km/h
315 06-11-2007 14:51:02 10.4 C 5.69 g/m*3 10.4 C 0 km/h
316 06-11-2007 15:03:02 10.3 C 5.46 g/m*3 10.3 C 0 km/h
317 06-11-2007 15:15:02 9.9 C 5.42 g/m*3 9.9 C 0 km/h
318 06-11-2007 15:27:02 9.6 C 5.4 g/m*3 9.6 C 0 km/h
319 06-11-2007 15:39:02 9.6 C 5.5 g/m*3 9.6 C 0 km/h
320 06-11-2007 15:51:02 9.5 C 5.37 g/m*3 9.5 C 0 km/h
321 06-11-2007 16:03:01 9.1 C 5.15 g/m*3 9.1 C 0 km/h
322 06-11-2007 16:15:01 8.8 C 5.14 g/m*3 8.8 C 0 km/h
323 06-11-2007 16:27:01 8.5 C 5.38 g/m*3 8.5 C 0 km/h
324 06-11-2007 16:39:02 8 C 5.62 g/m*3 8 C 0 km/h
325 06-11-2007 16:51:03 7.9 C 6 g/m*3 7.9 C 0 km/h
Sensor: Nr:Datum:Temp:Abs-Feuchte:Windchill:Wind:
Aussen-T/F 326 06-11-2007 17:03:02 8 C 5.62 g/m*3 8 C 0 km/h
327 06-11-2007 17:15:02 8.1 C 5.24 g/m*3 8.1 C 0 km/h
328 06-11-2007 17:27:02 7.8 C 5.14 g/m*3 7.8 C 0 km/h
329 06-11-2007 17:39:02 7.7 C 5.03 g/m*3 7.7 C 0 km/h
330 06-11-2007 17:51:01 7.6 C 4.99 g/m*3 7.6 C 0 km/h
331 06-11-2007 18:03:01 7.3 C 4.9 g/m*3 7.3 C 0 km/h
332 06-11-2007 18:15:02 7.3 C 4.98 g/m*3 7.3 C 0 km/h
333 06-11-2007 18:27:02 7.5 C 4.96 g/m*3 7.5 C 0 km/h
334 06-11-2007 18:39:02 7.3 C 5.06 g/m*3 7.3 C 0 km/h
335 06-11-2007 18:51:02 7.4 C 5.17 g/m*3 7.4 C 0 km/h
336 06-11-2007 19:03:02 7.3 C 5.29 g/m*3 7.3 C 0 km/h
337 06-11-2007 19:15:02 7.2 C 5.34 g/m*3 7.2 C 0 km/h
338 06-11-2007 19:27:02 7.4 C 5.33 g/m*3 7.4 C 0 km/h
339 06-11-2007 19:39:02 7.3 C 5.29 g/m*3 7.3 C 0 km/h
340 06-11-2007 19:51:02 7.6 C 5.4 g/m*3 7.6 C 0 km/h
341 06-11-2007 20:03:03 7.5 C 5.36 g/m*3 7.5 C 0 km/h
342 06-11-2007 20:15:02 7.3 C 5.37 g/m*3 7.3 C 0 km/h
343 06-11-2007 20:27:02 7.2 C 5.42 g/m*3 7.2 C 0 km/h
344 06-11-2007 20:39:02 7.1 C 5.38 g/m*3 7.1 C 0 km/h
345 06-11-2007 20:51:02 7.4 C 5.41 g/m*3 7.4 C 0 km/h
346 06-11-2007 21:03:01 7.4 C 5.41 g/m*3 7.4 C 0 km/h
347 06-11-2007 21:15:01 7.5 C 5.36 g/m*3 7.5 C 0 km/h
348 06-11-2007 21:27:01 7.5 C 5.28 g/m*3 7.5 C 0 km/h
349 06-11-2007 21:39:02 7.5 C 5.28 g/m*3 7.5 C 0 km/h
350 06-11-2007 21:51:02 7.5 C 5.28 g/m*3 7.5 C 0 km/h
Sensor: Nr:Datum:Temp:Abs-Feuchte:Windchill:Wind:
Aussen-T/F 351 06-11-2007 22:03:02 7.5 C 5.28 g/m*3 7.5 C 0 km/h
352 06-11-2007 22:15:02 7.6 C 5.32 g/m*3 7.6 C 0 km/h
353 06-11-2007 22:27:02 7.5 C 5.28 g/m*3 7.5 C 0 km/h
354 06-11-2007 22:39:03 7.4 C 5.33 g/m*3 7.4 C 0 km/h
355 06-11-2007 22:51:02 7.3 C 5.37 g/m*3 7.3 C 0 km/h
356 06-11-2007 23:03:02 7.3 C 5.37 g/m*3 7.3 C 0 km/h
357 06-11-2007 23:15:02 7.4 C 5.41 g/m*3 7.4 C 0 km/h
358 06-11-2007 23:27:02 7.4 C 5.41 g/m*3 7.4 C 0 km/h
359 06-11-2007 23:39:02 7.4 C 5.41 g/m*3 7.4 C 0 km/h
360 06-11-2007 23:51:02 7.5 C 5.44 g/m*3 7.5 C 0 km/h
361 07-11-2007 00:03:02 7.5 C 5.44 g/m*3 7.5 C 0 km/h
362 07-11-2007 00:15:03 7.2 C 5.42 g/m*3 7.2 C 0 km/h
363 07-11-2007 00:27:03 7 C 5.42 g/m*3 7 C 0 km/h
364 07-11-2007 00:39:02 6.8 C 5.58 g/m*3 6.8 C 0 km/h
365 07-11-2007 00:51:02 6.9 C 5.54 g/m*3 6.9 C 0 km/h
366 07-11-2007 01:03:03 7.1 C 5.54 g/m*3 7.1 C 0 km/h
367 07-11-2007 01:15:03 7 C 5.5 g/m*3 7 C 0 km/h
368 07-11-2007 01:27:03 7.1 C 5.54 g/m*3 7.1 C 0 km/h
369 07-11-2007 01:39:02 7.1 C 5.54 g/m*3 7.1 C 0 km/h
370 07-11-2007 01:51:02 7.3 C 5.45 g/m*3 7.3 C 0 km/h
371 07-11-2007 02:03:02 7.4 C 5.49 g/m*3 7.4 C 0 km/h
372 07-11-2007 02:15:01 7.3 C 5.45 g/m*3 7.3 C 0 km/h
373 07-11-2007 02:27:01 7.3 C 5.53 g/m*3 7.3 C 0 km/h
374 07-11-2007 02:39:02 7.3 C 5.61 g/m*3 7.3 C 0 km/h
375 07-11-2007 02:52:03 7.3 C 5.69 g/m*3 7.3 C 0 km/h
Sensor: Nr:Datum:Temp:Abs-Feuchte:Windchill:Wind:
Aussen-T/F 376 07-11-2007 03:04:03 7.3 C 5.77 g/m*3 7.3 C 0 km/h
377 07-11-2007 03:16:02 7.3 C 5.77 g/m*3 7.3 C 0 km/h
378 07-11-2007 03:28:02 7.3 C 5.77 g/m*3 7.3 C 0 km/h
379 07-11-2007 03:40:02 7.4 C 5.73 g/m*3 7.4 C 0 km/h
380 07-11-2007 03:52:02 7.3 C 5.69 g/m*3 7.3 C 0 km/h
381 07-11-2007 04:04:02 7.1 C 5.69 g/m*3 7.1 C 0 km/h
382 07-11-2007 04:16:02 7 C 5.73 g/m*3 7 C 0 km/h
383 07-11-2007 04:28:02 7.1 C 5.85 g/m*3 7.1 C 0 km/h
384 07-11-2007 04:40:02 7.2 C 5.81 g/m*3 7.2 C 0 km/h
385 07-11-2007 04:52:02 7.3 C 5.85 g/m*3 7.3 C 0 km/h
386 07-11-2007 05:04:02 7.4 C 5.88 g/m*3 7.4 C 0 km/h
387 07-11-2007 05:16:02 7.4 C 5.96 g/m*3 7.4 C 0 km/h
388 07-11-2007 05:28:02 7.3 C 6 g/m*3 7.3 C 0 km/h
389 07-11-2007 05:40:02 7.4 C 6.04 g/m*3 7.4 C 0 km/h
390 07-11-2007 05:52:02 7.5 C 6 g/m*3 7.5 C 0 km/h
391 07-11-2007 06:04:02 7.5 C 5.92 g/m*3 7.5 C 0 km/h
392 07-11-2007 06:16:02 7.5 C 5.92 g/m*3 7.5 C 0 km/h
393 07-11-2007 06:28:02 7.5 C 5.92 g/m*3 7.5 C 0 km/h
394 07-11-2007 06:40:01 7.5 C 5.84 g/m*3 7.5 C 0 km/h
395 07-11-2007 06:52:02 7.5 C 5.76 g/m*3 7.5 C 0 km/h
396 07-11-2007 07:04:02 7.5 C 5.68 g/m*3 7.5 C 0 km/h
397 07-11-2007 07:16:02 7.5 C 5.6 g/m*3 7.5 C 0 km/h
398 07-11-2007 07:28:02 7.5 C 5.6 g/m*3 7.5 C 0 km/h
399 07-11-2007 07:40:02 7.5 C 5.44 g/m*3 7.5 C 0 km/h
400 07-11-2007 07:52:01 7.5 C 5.36 g/m*3 7.5 C 0 km/h
Sensor: Nr:Datum:Temp:Abs-Feuchte:Windchill:Wind:
Aussen-T/F 401 07-11-2007 08:04:02 7.6 C 5.32 g/m*3 7.6 C 0 km/h
402 07-11-2007 08:16:02 7.6 C 5.24 g/m*3 7.6 C 0 km/h
403 07-11-2007 08:28:03 7.8 C 5.22 g/m*3 7.8 C 0 km/h
404 07-11-2007 08:40:02 7.8 C 5.22 g/m*3 7.8 C 0 km/h
405 07-11-2007 08:52:02 7.9 C 5.26 g/m*3 7.9 C 0 km/h
406 07-11-2007 09:04:02 8 C 5.21 g/m*3 8 C 0 km/h
407 07-11-2007 09:16:02 8.1 C 5.24 g/m*3 8.1 C 0 km/h
408 07-11-2007 09:28:02 8.1 C 5.24 g/m*3 8.1 C 0 km/h
409 07-11-2007 09:40:02 8.2 C 5.28 g/m*3 8.2 C 0 km/h
410 07-11-2007 09:52:02 8 C 5.37 g/m*3 8 C 0 km/h
411 07-11-2007 10:04:02 7.9 C 5.59 g/m*3 7.9 C 0 km/h
412 07-11-2007 10:16:02 7.7 C 5.68 g/m*3 7.7 C 0 km/h
413 07-11-2007 10:28:02 7.8 C 5.63 g/m*3 7.8 C 0 km/h
414 07-11-2007 10:40:02 8 C 5.54 g/m*3 8 C 0 km/h
415 07-11-2007 10:52:02 8.1 C 5.49 g/m*3 8.1 C 0 km/h
416 07-11-2007 11:04:02 8.2 C 5.53 g/m*3 8.2 C 0 km/h
417 07-11-2007 11:16:02 8.2 C 5.53 g/m*3 8.2 C 0 km/h
418 07-11-2007 11:28:02 8.3 C 5.56 g/m*3 8.3 C 0 km/h
419 07-11-2007 11:40:02 8.4 C 5.6 g/m*3 8.4 C 0 km/h
420 07-11-2007 11:52:03 8.4 C 5.68 g/m*3 8.4 C 0 km/h
421 07-11-2007 12:04:02 8.3 C 5.82 g/m*3 8.3 C 0 km/h
422 07-11-2007 12:16:02 8.4 C 5.85 g/m*3 8.4 C 0 km/h
423 07-11-2007 12:28:02 8.4 C 5.85 g/m*3 8.4 C 0 km/h
424 07-11-2007 12:40:02 8.3 C 5.82 g/m*3 8.3 C 0 km/h
425 07-11-2007 12:52:02 8.3 C 5.9 g/m*3 8.3 C 0 km/h
Sensor: Nr:Datum:Temp:Abs-Feuchte:Windchill:Wind:
Aussen-T/F 426 07-11-2007 13:04:03 8.6 C 5.93 g/m*3 8.6 C 0 km/h
427 07-11-2007 13:16:03 8.9 C 5.87 g/m*3 8.9 C 0 km/h
428 07-11-2007 13:28:03 9 C 5.82 g/m*3 9 C 0 km/h
429 07-11-2007 13:40:03 9.4 C 5.88 g/m*3 9.4 C 0 km/h
430 07-11-2007 13:52:02 9.7 C 5.81 g/m*3 9.7 C 0 km/h
431 07-11-2007 14:04:02 9.9 C 5.88 g/m*3 9.9 C 0 km/h
432 07-11-2007 14:16:02 10 C 5.83 g/m*3 10 C 0 km/h
433 07-11-2007 14:28:02 9.8 C 5.94 g/m*3 9.8 C 0 km/h
434 07-11-2007 14:40:02 9.8 C 6.03 g/m*3 9.8 C 0 km/h
435 07-11-2007 14:52:03 9.5 C 6.01 g/m*3 9.5 C 0 km/h
436 07-11-2007 15:04:02 9.3 C 6.11 g/m*3 9.3 C 0 km/h
437 07-11-2007 15:16:02 9.1 C 6.12 g/m*3 9.1 C 0 km/h
438 07-11-2007 15:28:02 9.1 C 6.21 g/m*3 9.1 C 0 km/h
439 07-11-2007 15:40:02 9.3 C 6.38 g/m*3 9.3 C 0 km/h
440 07-11-2007 15:52:02 9.2 C 6.43 g/m*3 9.2 C 0 km/h
441 07-11-2007 16:04:02 9.2 C 6.52 g/m*3 9.2 C 0 km/h
442 07-11-2007 16:16:02 8.9 C 6.75 g/m*3 8.9 C 0 km/h
443 07-11-2007 16:28:02 8.9 C 6.83 g/m*3 8.9 C 0 km/h
444 07-11-2007 16:40:03 8.8 C 6.79 g/m*3 8.8 C 0 km/h
445 07-11-2007 16:52:02 8.8 C 6.79 g/m*3 8.8 C 0 km/h
446 07-11-2007 17:04:03 8.8 C 6.79 g/m*3 8.8 C 0 km/h
447 07-11-2007 17:16:02 8.6 C 6.79 g/m*3 8.6 C 0 km/h
448 07-11-2007 17:28:02 8.6 C 6.79 g/m*3 8.6 C 0 km/h
449 07-11-2007 17:40:03 8.7 C 6.83 g/m*3 8.7 C 0 km/h
450 07-11-2007 17:52:02 8.9 C 6.83 g/m*3 8.9 C 0 km/h
Sensor: Nr:Datum:Temp:Abs-Feuchte:Windchill:Wind:
Aussen-T/F 451 07-11-2007 18:04:02 9.2 C 6.7 g/m*3 9.2 C 0 km/h
452 07-11-2007 18:16:03 9.5 C 6.74 g/m*3 9.5 C 0 km/h
453 07-11-2007 18:28:03 9.7 C 6.73 g/m*3 9.7 C 0 km/h
454 07-11-2007 18:40:03 9.9 C 6.72 g/m*3 9.9 C 0 km/h
455 07-11-2007 18:52:02 10 C 6.67 g/m*3 10 C 0 km/h
456 07-11-2007 19:04:02 10.1 C 6.62 g/m*3 10.1 C 0 km/h
457 07-11-2007 19:16:02 10.2 C 6.66 g/m*3 10.2 C 0 km/h
458 07-11-2007 19:28:02 10.3 C 6.7 g/m*3 10.3 C 0 km/h
459 07-11-2007 19:40:02 10.5 C 6.69 g/m*3 10.5 C 0 km/h
460 07-11-2007 19:52:02 10.6 C 6.73 g/m*3 10.6 C 0 km/h
461 07-11-2007 20:04:02 10.5 C 6.79 g/m*3 10.5 C 0 km/h
462 07-11-2007 20:16:02 10.7 C 6.88 g/m*3 10.7 C 0 km/h
463 07-11-2007 20:28:02 10.7 C 6.78 g/m*3 10.7 C 0 km/h
464 07-11-2007 20:40:02 11.1 C 6.75 g/m*3 11.1 C 0 km/h
465 07-11-2007 20:52:01 11 C 6.71 g/m*3 11 C 0 km/h
466 07-11-2007 21:04:01 11.2 C 6.69 g/m*3 11.2 C 0 km/h
467 07-11-2007 21:16:01 10.7 C 6.97 g/m*3 10.7 C 0 km/h
468 07-11-2007 21:28:01 10.4 C 7.23 g/m*3 10.4 C 0 km/h
469 07-11-2007 21:40:02 9.9 C 7.38 g/m*3 9.9 C 0 km/h
470 07-11-2007 21:52:02 9.6 C 7.6 g/m*3 9.6 C 0 km/h
471 07-11-2007 22:04:02 9.3 C 7.55 g/m*3 9.3 C 0 km/h
472 07-11-2007 22:16:02 9.3 C 7.73 g/m*3 9.3 C 0 km/h
473 07-11-2007 22:28:02 9.1 C 7.72 g/m*3 9.1 C 0 km/h
474 07-11-2007 22:40:02 9 C 7.76 g/m*3 9 C 0 km/h
475 07-11-2007 22:52:02 8.9 C 7.8 g/m*3 8.9 C 0 km/h
Sensor: Nr:Datum:Temp:Abs-Feuchte:Windchill:Wind:
Aussen-T/F 476 07-11-2007 23:04:02 8.9 C 7.88 g/m*3 8.9 C 0 km/h
477 07-11-2007 23:16:02 9 C 7.93 g/m*3 9 C 0 km/h
478 07-11-2007 23:28:03 9 C 7.93 g/m*3 9 C 0 km/h
479 07-11-2007 23:40:02 9.2 C 8.04 g/m*3 9.2 C 0 km/h
480 07-11-2007 23:52:01 9.4 C 7.96 g/m*3 9.4 C 0 km/h
481 08-11-2007 00:04:01 9.5 C 7.74 g/m*3 9.5 C 0 km/h
482 08-11-2007 00:16:01 9.6 C 7.69 g/m*3 9.6 C 0 km/h
483 08-11-2007 00:28:01 9.6 C 7.6 g/m*3 9.6 C 0 km/h
484 08-11-2007 00:40:01 9.6 C 7.6 g/m*3 9.6 C 0 km/h
485 08-11-2007 00:52:02 9.5 C 7.55 g/m*3 9.5 C 0 km/h
486 08-11-2007 01:04:02 9.5 C 7.55 g/m*3 9.5 C 0 km/h
487 08-11-2007 01:16:01 9.5 C 7.55 g/m*3 9.5 C 0 km/h
488 08-11-2007 01:28:01 9.4 C 7.51 g/m*3 9.4 C 0 km/h
489 08-11-2007 01:40:02 9.5 C 7.55 g/m*3 9.5 C 0 km/h
490 08-11-2007 01:52:02 9.6 C 7.42 g/m*3 9.6 C 0 km/h
491 08-11-2007 02:04:02 9.6 C 7.24 g/m*3 9.6 C 0 km/h
492 08-11-2007 02:16:02 9.5 C 7.1 g/m*3 9.5 C 0 km/h
493 08-11-2007 02:28:02 9.5 C 7.1 g/m*3 9.5 C 0 km/h
494 08-11-2007 02:40:01 9.5 C 7.1 g/m*3 9.5 C 0 km/h
495 08-11-2007 02:52:01 9.3 C 7.01 g/m*3 9.3 C 0 km/h
496 08-11-2007 03:04:01 9.5 C 6.92 g/m*3 9.5 C 0 km/h
497 08-11-2007 03:16:01 9.6 C 6.78 g/m*3 9.6 C 0 km/h
498 08-11-2007 03:28:01 9.5 C 6.74 g/m*3 9.5 C 0 km/h
499 08-11-2007 03:40:02 9.5 C 6.83 g/m*3 9.5 C 0 km/h
500 08-11-2007 03:52:02 9.4 C 6.78 g/m*3 9.4 C 0 km/h
Sensor: Nr:Datum:Temp:Abs-Feuchte:Windchill:Wind:
Aussen-T/F 501 08-11-2007 04:04:01 9.3 C 6.74 g/m*3 9.3 C 0 km/h
502 08-11-2007 04:16:01 9.3 C 6.74 g/m*3 9.3 C 0 km/h
503 08-11-2007 04:28:01 9.3 C 6.74 g/m*3 9.3 C 0 km/h
504 08-11-2007 04:40:01 9.4 C 6.78 g/m*3 9.4 C 0 km/h
505 08-11-2007 04:52:02 9.2 C 6.79 g/m*3 9.2 C 0 km/h
506 08-11-2007 05:04:01 9 C 6.7 g/m*3 9 C 0 km/h
507 08-11-2007 05:16:01 8.7 C 6.83 g/m*3 8.7 C 0 km/h
508 08-11-2007 05:28:01 8.4 C 6.87 g/m*3 8.4 C 0 km/h
509 08-11-2007 05:40:02 8.7 C 7.09 g/m*3 8.7 C 0 km/h
510 08-11-2007 05:52:01 8.7 C 7.09 g/m*3 8.7 C 0 km/h
511 08-11-2007 06:04:02 8.8 C 7.22 g/m*3 8.8 C 0 km/h
512 08-11-2007 06:16:01 8.9 C 7.27 g/m*3 8.9 C 0 km/h
513 08-11-2007 06:28:01 8.9 C 7.27 g/m*3 8.9 C 0 km/h
514 08-11-2007 06:40:01 9 C 7.23 g/m*3 9 C 0 km/h
515 08-11-2007 06:52:01 9.1 C 7.19 g/m*3 9.1 C 0 km/h
516 08-11-2007 07:04:01 9.3 C 7.28 g/m*3 9.3 C 0 km/h
517 08-11-2007 07:16:01 9.2 C 7.14 g/m*3 9.2 C 0 km/h
518 08-11-2007 07:28:01 9.2 C 7.05 g/m*3 9.2 C 0 km/h
519 08-11-2007 07:40:02 9.2 C 7.05 g/m*3 9.2 C 0 km/h
520 08-11-2007 07:52:01 9.3 C 7.01 g/m*3 9.3 C 0 km/h
521 08-11-2007 08:04:03 9.3 C 7.01 g/m*3 9.3 C 0 km/h
522 08-11-2007 08:16:02 9.3 C 6.92 g/m*3 9.3 C 0 km/h
523 08-11-2007 08:28:02 9.3 C 6.92 g/m*3 9.3 C 0 km/h
524 08-11-2007 08:40:02 9.3 C 7.01 g/m*3 9.3 C 0 km/h
525 08-11-2007 08:52:02 9.5 C 7.01 g/m*3 9.5 C 0 km/h
Sensor: Nr:Datum:Temp:Abs-Feuchte:Windchill:Wind:
Aussen-T/F 526 08-11-2007 09:04:01 9.7 C 7.1 g/m*3 9.7 C 0 km/h
527 08-11-2007 09:16:01 9.8 C 7.14 g/m*3 9.8 C 0 km/h
528 08-11-2007 09:28:01 9.7 C 7.19 g/m*3 9.7 C 0 km/h
529 08-11-2007 09:40:01 9.7 C 7.28 g/m*3 9.7 C 0 km/h
530 08-11-2007 09:52:01 9.6 C 7.33 g/m*3 9.6 C 0 km/h
531 08-11-2007 10:04:02 10.1 C 7.38 g/m*3 10.1 C 0 km/h
532 08-11-2007 10:16:02 10.5 C 7.37 g/m*3 10.5 C 0 km/h
533 08-11-2007 10:28:02 10.6 C 7.32 g/m*3 10.6 C 0 km/h
534 08-11-2007 10:40:02 10.8 C 7.41 g/m*3 10.8 C 0 km/h
535 08-11-2007 10:52:02 10.9 C 7.36 g/m*3 10.9 C 0 km/h
536 08-11-2007 11:04:02 10.9 C 7.36 g/m*3 10.9 C 0 km/h
537 08-11-2007 11:16:01 10.8 C 7.31 g/m*3 10.8 C 0 km/h
538 08-11-2007 11:28:01 10.8 C 7.31 g/m*3 10.8 C 0 km/h
539 08-11-2007 11:40:01 10.8 C 7.31 g/m*3 10.8 C 0 km/h
540 08-11-2007 11:52:01 11 C 7.21 g/m*3 11 C 0 km/h
541 08-11-2007 12:04:01 11 C 7.21 g/m*3 11 C 0 km/h
542 08-11-2007 12:16:02 11 C 7.01 g/m*3 11 C 0 km/h
543 08-11-2007 12:28:02 11.2 C 6.99 g/m*3 11.2 C 0 km/h
544 08-11-2007 12:40:01 11.3 C 7.04 g/m*3 11.3 C 0 km/h
545 08-11-2007 12:52:02 11.4 C 7.08 g/m*3 11.4 C 0 km/h
546 08-11-2007 13:04:01 11.5 C 7.13 g/m*3 11.5 C 0 km/h
547 08-11-2007 13:16:02 11.4 C 6.98 g/m*3 11.4 C 0 km/h
548 08-11-2007 13:28:02 11.3 C 7.04 g/m*3 11.3 C 0 km/h
549 08-11-2007 13:40:02 11.2 C 6.99 g/m*3 11.2 C 0 km/h
550 08-11-2007 13:52:02 11 C 6.91 g/m*3 11 C 0 km/h
Sensor: Nr:Datum:Temp:Abs-Feuchte:Windchill:Wind:
Aussen-T/F 551 08-11-2007 14:04:01 11 C 6.91 g/m*3 11 C 0 km/h
552 08-11-2007 14:16:01 11.1 C 6.95 g/m*3 11.1 C 0 km/h
553 08-11-2007 14:28:01 11.2 C 6.99 g/m*3 11.2 C 0 km/h
554 08-11-2007 14:40:01 11.2 C 6.89 g/m*3 11.2 C 0 km/h
555 08-11-2007 14:52:01 11.1 C 6.95 g/m*3 11.1 C 0 km/h
556 08-11-2007 15:04:02 11.1 C 6.95 g/m*3 11.1 C 0 km/h
557 08-11-2007 15:16:01 11.1 C 6.95 g/m*3 11.1 C 0 km/h
558 08-11-2007 15:28:02 11 C 6.91 g/m*3 11 C 0 km/h
559 08-11-2007 15:40:01 11 C 6.81 g/m*3 11 C 0 km/h
560 08-11-2007 15:52:01 11 C 6.91 g/m*3 11 C 0 km/h
561 08-11-2007 16:04:01 10.8 C 7.02 g/m*3 10.8 C 0 km/h
562 08-11-2007 16:16:01 10.7 C 7.17 g/m*3 10.7 C 0 km/h
563 08-11-2007 16:28:01 10.6 C 7.22 g/m*3 10.6 C 0 km/h
564 08-11-2007 16:40:02 10.5 C 7.18 g/m*3 10.5 C 0 km/h
565 08-11-2007 16:52:02 10.4 C 7.23 g/m*3 10.4 C 0 km/h
566 08-11-2007 17:04:01 10.4 C 7.23 g/m*3 10.4 C 0 km/h
567 08-11-2007 17:16:01 10.4 C 7.23 g/m*3 10.4 C 0 km/h
568 08-11-2007 17:28:01 10.4 C 7.13 g/m*3 10.4 C 0 km/h
569 08-11-2007 17:40:01 10 C 7.33 g/m*3 10 C 0 km/h
570 08-11-2007 17:52:01 9.5 C 7.65 g/m*3 9.5 C 0 km/h
571 08-11-2007 18:04:01 9.3 C 7.73 g/m*3 9.3 C 0 km/h
572 08-11-2007 18:16:01 9.3 C 7.82 g/m*3 9.3 C 0 km/h
573 08-11-2007 18:28:01 9.3 C 7.82 g/m*3 9.3 C 0 km/h
574 08-11-2007 18:40:02 9.3 C 7.82 g/m*3 9.3 C 0 km/h
575 08-11-2007 18:52:02 9.3 C 7.91 g/m*3 9.3 C 0 km/h
Sensor: Nr:Datum:Temp:Abs-Feuchte:Windchill:Wind:
Aussen-T/F 576 08-11-2007 19:04:01 9.3 C 7.91 g/m*3 9.3 C 0 km/h
577 08-11-2007 19:16:01 9.2 C 7.86 g/m*3 9.2 C 0 km/h
578 08-11-2007 19:28:01 9.2 C 7.86 g/m*3 9.2 C 0 km/h
579 08-11-2007 19:40:01 9.1 C 7.81 g/m*3 9.1 C 0 km/h
580 08-11-2007 19:52:02 9.1 C 7.81 g/m*3 9.1 C 0 km/h
581 08-11-2007 20:04:02 9.2 C 7.77 g/m*3 9.2 C 0 km/h
582 08-11-2007 20:16:02 9.6 C 7.51 g/m*3 9.6 C 0 km/h
583 08-11-2007 20:28:02 9.7 C 7.28 g/m*3 9.7 C 0 km/h
584 08-11-2007 20:40:02 9.7 C 7.1 g/m*3 9.7 C 0 km/h
585 08-11-2007 20:52:01 9.7 C 6.91 g/m*3 9.7 C 0 km/h
586 08-11-2007 21:04:02 9.7 C 6.91 g/m*3 9.7 C 0 km/h
587 08-11-2007 21:16:02 9.7 C 6.82 g/m*3 9.7 C 0 km/h
588 08-11-2007 21:28:02 9.4 C 6.78 g/m*3 9.4 C 0 km/h
589 08-11-2007 21:40:02 9.4 C 6.78 g/m*3 9.4 C 0 km/h
590 08-11-2007 21:52:01 9.5 C 6.92 g/m*3 9.5 C 0 km/h
591 08-11-2007 22:04:02 9.7 C 6.91 g/m*3 9.7 C 0 km/h
592 08-11-2007 22:16:02 9.6 C 6.96 g/m*3 9.6 C 0 km/h
593 08-11-2007 22:28:02 9.7 C 7.1 g/m*3 9.7 C 0 km/h
594 08-11-2007 22:40:02 9.8 C 7.14 g/m*3 9.8 C 0 km/h
595 08-11-2007 22:52:01 10 C 7.05 g/m*3 10 C 0 km/h
596 08-11-2007 23:04:02 9.8 C 7.33 g/m*3 9.8 C 0 km/h
597 08-11-2007 23:16:02 9.6 C 7.42 g/m*3 9.6 C 0 km/h
598 08-11-2007 23:28:02 9.2 C 7.59 g/m*3 9.2 C 0 km/h
599 08-11-2007 23:40:02 8.7 C 7.52 g/m*3 8.7 C 0 km/h
600 08-11-2007 23:52:02 8.4 C 7.21 g/m*3 8.4 C 0 km/h
Sensor: Nr:Datum:Temp:Abs-Feuchte:Windchill:Wind:
Aussen-T/F 601 09-11-2007 00:04:02 7.9 C 6.98 g/m*3 7.9 C 0 km/h
602 09-11-2007 00:16:02 7.4 C 6.52 g/m*3 7.4 C 0 km/h
603 09-11-2007 00:28:02 7.1 C 6.47 g/m*3 7.1 C 0 km/h
604 09-11-2007 00:40:02 6.8 C 6.5 g/m*3 6.8 C 0 km/h
605 09-11-2007 00:52:02 6.5 C 6.45 g/m*3 6.5 C 0 km/h
606 09-11-2007 01:04:02 6.5 C 6.6 g/m*3 6.5 C 0 km/h
607 09-11-2007 01:16:02 6.5 C 6.67 g/m*3 6.5 C 0 km/h
608 09-11-2007 01:28:02 6.5 C 6.67 g/m*3 6.5 C 0 km/h
609 09-11-2007 01:40:02 6.4 C 6.63 g/m*3 6.4 C 0 km/h
610 09-11-2007 01:52:02 6.4 C 6.63 g/m*3 6.4 C 0 km/h
611 09-11-2007 02:04:02 6.4 C 6.63 g/m*3 6.4 C 0 km/h
612 09-11-2007 02:16:02 6.4 C 6.48 g/m*3 6.4 C 0 km/h
613 09-11-2007 02:28:02 6.3 C 6.44 g/m*3 6.3 C 0 km/h
614 09-11-2007 02:40:02 6.6 C 6.42 g/m*3 6.6 C 0 km/h
615 09-11-2007 02:53:05 6.4 C 5.96 g/m*3 6.4 C 0 km/h
616 09-11-2007 03:05:05 5.9 C 5.84 g/m*3 5.9 C 0 km/h
617 09-11-2007 03:17:04 5.8 C 5.87 g/m*3 5.8 C 0 km/h
618 09-11-2007 03:29:04 5.7 C 5.91 g/m*3 5.7 C 0 km/h
619 09-11-2007 03:41:02 5.8 C 5.8 g/m*3 5.8 C 0 km/h
620 09-11-2007 03:53:02 5.3 C 5.54 g/m*3 5.3 C 0 km/h
621 09-11-2007 04:05:02 4.6 C 5.43 g/m*3 4.6 C 0 km/h
622 09-11-2007 04:17:02 4.3 C 5.38 g/m*3 4.3 C 0 km/h
623 09-11-2007 04:29:02 4.1 C 5.38 g/m*3 4.1 C 0 km/h
624 09-11-2007 04:41:02 3.9 C 5.43 g/m*3 3.9 C 0 km/h
625 09-11-2007 04:53:03 4 C 5.47 g/m*3 4 C 0 km/h
Sensor: Nr:Datum:Temp:Abs-Feuchte:Windchill:Wind:
Aussen-T/F 626 09-11-2007 05:05:03 4 C 5.53 g/m*3 4 C 0 km/h
627 09-11-2007 05:17:03 4.1 C 5.57 g/m*3 4.1 C 0 km/h
628 09-11-2007 05:29:03 4.1 C 5.44 g/m*3 4.1 C 0 km/h
629 09-11-2007 05:41:03 4 C 5.34 g/m*3 4 C 0 km/h
630 09-11-2007 05:53:02 4.2 C 5.35 g/m*3 4.2 C 0 km/h
631 09-11-2007 06:05:02 4.5 C 5.26 g/m*3 4.5 C 0 km/h
632 09-11-2007 06:17:02 4.2 C 5.22 g/m*3 4.2 C 0 km/h
633 09-11-2007 06:29:03 4 C 5.15 g/m*3 4 C 0 km/h
634 09-11-2007 06:41:02 4.1 C 5.06 g/m*3 4.1 C 0 km/h
635 09-11-2007 06:53:02 4.1 C 4.99 g/m*3 4.1 C 0 km/h
636 09-11-2007 07:05:03 4 C 4.9 g/m*3 4 C 0 km/h
637 09-11-2007 07:17:02 3.9 C 4.86 g/m*3 3.9 C 0 km/h
638 09-11-2007 07:29:02 3.8 C 4.77 g/m*3 3.8 C 0 km/h
639 09-11-2007 07:41:02 3.9 C 4.67 g/m*3 3.9 C 0 km/h
640 09-11-2007 07:53:02 3.9 C 4.67 g/m*3 3.9 C 0 km/h
641 09-11-2007 08:05:02 4.2 C 4.57 g/m*3 4.2 C 0 km/h
642 09-11-2007 08:17:02 3.8 C 4.52 g/m*3 3.8 C 0 km/h
643 09-11-2007 08:29:02 4.2 C 4.57 g/m*3 4.2 C 0 km/h
644 09-11-2007 08:41:02 4.4 C 4.57 g/m*3 4.4 C 0 km/h
645 09-11-2007 08:53:02 4.4 C 4.57 g/m*3 4.4 C 0 km/h
646 09-11-2007 09:05:02 4.6 C 4.5 g/m*3 4.6 C 0 km/h
647 09-11-2007 09:17:02 4.8 C 4.56 g/m*3 4.8 C 0 km/h
648 09-11-2007 09:29:02 5 C 4.55 g/m*3 5 C 0 km/h
649 09-11-2007 09:41:03 4.3 C 4.67 g/m*3 4.3 C 0 km/h
650 09-11-2007 09:53:02 3.8 C 4.77 g/m*3 3.8 C 0 km/h
Sensor: Nr:Datum:Temp:Abs-Feuchte:Windchill:Wind:
Aussen-T/F 651 09-11-2007 10:05:02 3.9 C 4.8 g/m*3 3.9 C 0 km/h
652 09-11-2007 10:17:02 4.4 C 4.83 g/m*3 4.4 C 0 km/h
653 09-11-2007 10:29:02 5 C 4.55 g/m*3 5 C 0 km/h
654 09-11-2007 10:41:03 5.1 C 4.51 g/m*3 5.1 C 0 km/h
655 09-11-2007 10:53:02 5 C 4.55 g/m*3 5 C 0 km/h
656 09-11-2007 11:05:02 4.7 C 4.66 g/m*3 4.7 C 0 km/h
657 09-11-2007 11:17:02 4.9 C 4.66 g/m*3 4.9 C 0 km/h
658 09-11-2007 11:29:02 5.7 C 4.55 g/m*3 5.7 C 0 km/h
659 09-11-2007 11:41:02 5.9 C 4.4 g/m*3 5.9 C 0 km/h
660 09-11-2007 11:53:02 6.1 C 4.46 g/m*3 6.1 C 0 km/h
661 09-11-2007 12:05:03 6.2 C 4.34 g/m*3 6.2 C 0 km/h
662 09-11-2007 12:17:02 6.7 C 4.41 g/m*3 6.7 C 0 km/h
663 09-11-2007 12:29:02 6.6 C 4.45 g/m*3 6.6 C 0 km/h
664 09-11-2007 12:41:02 6.4 C 4.47 g/m*3 6.4 C 0 km/h
665 09-11-2007 12:53:02 6 C 4.5 g/m*3 6 C 0 km/h
666 09-11-2007 13:05:01 6.2 C 4.63 g/m*3 6.2 C 0 km/h
667 09-11-2007 13:17:02 6.7 C 4.56 g/m*3 6.7 C 0 km/h
668 09-11-2007 13:29:02 6.9 C 4.54 g/m*3 6.9 C 0 km/h
669 09-11-2007 13:41:02 6.6 C 4.45 g/m*3 6.6 C 0 km/h
670 09-11-2007 13:53:02 6.5 C 4.42 g/m*3 6.5 C 0 km/h
671 09-11-2007 14:05:02 6.6 C 4.38 g/m*3 6.6 C 0 km/h
672 09-11-2007 14:17:02 6.5 C 4.42 g/m*3 6.5 C 0 km/h
673 09-11-2007 14:29:02 6.5 C 4.5 g/m*3 6.5 C 0 km/h
674 09-11-2007 14:41:03 6.3 C 4.44 g/m*3 6.3 C 0 km/h
675 09-11-2007 14:53:03 5.9 C 4.54 g/m*3 5.9 C 0 km/h
Sensor: Nr:Datum:Temp:Abs-Feuchte:Windchill:Wind:
Aussen-T/F 676 09-11-2007 15:05:03 5.8 C 4.51 g/m*3 5.8 C 0 km/h
677 09-11-2007 15:17:02 5.8 C 4.58 g/m*3 5.8 C 0 km/h
678 09-11-2007 15:29:02 5.6 C 4.67 g/m*3 5.6 C 0 km/h
679 09-11-2007 15:41:02 5.1 C 4.72 g/m*3 5.1 C 0 km/h
680 09-11-2007 15:53:02 5 C 4.76 g/m*3 5 C 0 km/h
681 09-11-2007 16:05:03 5.4 C 4.67 g/m*3 5.4 C 0 km/h
682 09-11-2007 16:17:02 6 C 4.65 g/m*3 6 C 0 km/h
683 09-11-2007 16:29:02 5.9 C 4.61 g/m*3 5.9 C 0 km/h
684 09-11-2007 16:41:02 5.3 C 4.64 g/m*3 5.3 C 0 km/h
685 09-11-2007 16:53:02 5 C 4.62 g/m*3 5 C 0 km/h
686 09-11-2007 17:05:05 5 C 4.62 g/m*3 5 C 0 km/h
687 09-11-2007 17:17:03 4.7 C 4.86 g/m*3 4.7 C 0 km/h
688 09-11-2007 17:29:03 4.5 C 5 g/m*3 4.5 C 0 km/h
689 09-11-2007 17:41:03 4.6 C 5.03 g/m*3 4.6 C 0 km/h
690 09-11-2007 17:53:02 4.7 C 4.93 g/m*3 4.7 C 0 km/h
691 09-11-2007 18:05:03 4.7 C 5 g/m*3 4.7 C 0 km/h
692 09-11-2007 18:17:03 4.5 C 5.06 g/m*3 4.5 C 0 km/h
693 09-11-2007 18:29:03 4.4 C 5.09 g/m*3 4.4 C 0 km/h
694 09-11-2007 18:41:03 4.5 C 5.06 g/m*3 4.5 C 0 km/h
695 09-11-2007 18:53:02 4.4 C 5.03 g/m*3 4.4 C 0 km/h
696 09-11-2007 19:05:02 4.4 C 5.09 g/m*3 4.4 C 0 km/h
697 09-11-2007 19:17:02 4.2 C 5.09 g/m*3 4.2 C 0 km/h
698 09-11-2007 19:29:02 4.2 C 5.15 g/m*3 4.2 C 0 km/h
699 09-11-2007 19:41:02 4.3 C 5.06 g/m*3 4.3 C 0 km/h
700 09-11-2007 19:53:02 4.6 C 5.03 g/m*3 4.6 C 0 km/h
Sensor: Nr:Datum:Temp:Abs-Feuchte:Windchill:Wind:
Aussen-T/F 701 09-11-2007 20:05:02 4.7 C 5 g/m*3 4.7 C 0 km/h
702 09-11-2007 20:17:02 4.7 C 5 g/m*3 4.7 C 0 km/h
703 09-11-2007 20:29:02 4.8 C 5.03 g/m*3 4.8 C 0 km/h
704 09-11-2007 20:41:03 4.9 C 5 g/m*3 4.9 C 0 km/h
705 09-11-2007 20:53:02 4.8 C 5.03 g/m*3 4.8 C 0 km/h
706 09-11-2007 21:05:02 4.7 C 5 g/m*3 4.7 C 0 km/h
707 09-11-2007 21:17:02 4.8 C 5.03 g/m*3 4.8 C 0 km/h
708 09-11-2007 21:29:02 4.7 C 5.06 g/m*3 4.7 C 0 km/h
709 09-11-2007 21:41:02 4.9 C 5.06 g/m*3 4.9 C 0 km/h
710 09-11-2007 21:53:01 4.9 C 5.06 g/m*3 4.9 C 0 km/h
711 09-11-2007 22:05:01 4.8 C 5.03 g/m*3 4.8 C 0 km/h
712 09-11-2007 22:17:02 5 C 4.96 g/m*3 5 C 0 km/h
713 09-11-2007 22:29:02 5 C 4.96 g/m*3 5 C 0 km/h
714 09-11-2007 22:41:02 4.7 C 5.13 g/m*3 4.7 C 0 km/h
715 09-11-2007 22:53:02 4.7 C 5.26 g/m*3 4.7 C 0 km/h
716 09-11-2007 23:05:03 4.8 C 5.23 g/m*3 4.8 C 0 km/h
717 09-11-2007 23:17:02 4.8 C 5.23 g/m*3 4.8 C 0 km/h
718 09-11-2007 23:29:02 4.7 C 5.33 g/m*3 4.7 C 0 km/h
719 09-11-2007 23:41:02 4.6 C 5.43 g/m*3 4.6 C 0 km/h
720 09-11-2007 23:53:02 4.7 C 5.46 g/m*3 4.7 C 0 km/h
721 10-11-2007 00:05:02 4.5 C 5.46 g/m*3 4.5 C 0 km/h
722 10-11-2007 00:17:02 4.5 C 5.59 g/m*3 4.5 C 0 km/h
723 10-11-2007 00:29:02 4.4 C 5.62 g/m*3 4.4 C 0 km/h
724 10-11-2007 00:41:02 4.3 C 5.58 g/m*3 4.3 C 0 km/h
725 10-11-2007 00:53:02 4.2 C 5.61 g/m*3 4.2 C 0 km/h
Sensor: Nr:Datum:Temp:Abs-Feuchte:Windchill:Wind:
Aussen-T/F 726 10-11-2007 01:05:02 4 C 5.53 g/m*3 4 C 0 km/h
727 10-11-2007 01:17:02 4.3 C 5.51 g/m*3 4.3 C 0 km/h
728 10-11-2007 01:29:02 4.3 C 5.45 g/m*3 4.3 C 0 km/h
729 10-11-2007 01:41:03 4.3 C 5.32 g/m*3 4.3 C 0 km/h
730 10-11-2007 01:53:02 4.4 C 5.22 g/m*3 4.4 C 0 km/h
731 10-11-2007 02:05:02 4.5 C 5.26 g/m*3 4.5 C 0 km/h
732 10-11-2007 02:17:03 4.6 C 5.29 g/m*3 4.6 C 0 km/h
733 10-11-2007 02:29:03 4.8 C 5.3 g/m*3 4.8 C 0 km/h
734 10-11-2007 02:41:03 4.9 C 5.27 g/m*3 4.9 C 0 km/h
735 10-11-2007 02:54:03 4.9 C 5.27 g/m*3 4.9 C 0 km/h
736 10-11-2007 03:06:03 4.8 C 5.16 g/m*3 4.8 C 0 km/h
737 10-11-2007 03:18:03 4.9 C 5.13 g/m*3 4.9 C 0 km/h
738 10-11-2007 03:30:03 4.9 C 5.06 g/m*3 4.9 C 0 km/h
739 10-11-2007 03:42:02 4.9 C 5 g/m*3 4.9 C 0 km/h
740 10-11-2007 03:54:02 4.9 C 4.93 g/m*3 4.9 C 0 km/h
741 10-11-2007 04:06:02 4.8 C 4.9 g/m*3 4.8 C 0 km/h
742 10-11-2007 04:18:02 4.8 C 4.83 g/m*3 4.8 C 0 km/h
743 10-11-2007 04:30:02 4.8 C 4.83 g/m*3 4.8 C 0 km/h
744 10-11-2007 04:42:03 4.7 C 4.8 g/m*3 4.7 C 0 km/h
745 10-11-2007 04:54:03 4.6 C 4.83 g/m*3 4.6 C 0 km/h
746 10-11-2007 05:06:03 4.6 C 4.9 g/m*3 4.6 C 0 km/h
747 10-11-2007 05:18:02 4.7 C 5 g/m*3 4.7 C 0 km/h
748 10-11-2007 05:30:02 4.5 C 5.06 g/m*3 4.5 C 0 km/h
749 10-11-2007 05:42:02 4.4 C 5.09 g/m*3 4.4 C 0 km/h
750 10-11-2007 05:54:02 4.2 C 5.15 g/m*3 4.2 C 0 km/h
Sensor: Nr:Datum:Temp:Abs-Feuchte:Windchill:Wind:
Aussen-T/F 751 10-11-2007 06:06:02 3.8 C 5.4 g/m*3 3.8 C 0 km/h
752 10-11-2007 06:18:02 3.7 C 5.48 g/m*3 3.7 C 0 km/h
753 10-11-2007 06:30:02 3.7 C 5.48 g/m*3 3.7 C 0 km/h
754 10-11-2007 06:42:02 3.8 C 5.52 g/m*3 3.8 C 0 km/h
755 10-11-2007 06:54:01 4 C 5.53 g/m*3 4 C 0 km/h
756 10-11-2007 07:06:01 4 C 5.47 g/m*3 4 C 0 km/h
757 10-11-2007 07:18:02 4 C 5.47 g/m*3 4 C 0 km/h
758 10-11-2007 07:30:02 4.1 C 5.57 g/m*3 4.1 C 0 km/h
759 10-11-2007 07:42:02 4.2 C 5.61 g/m*3 4.2 C 0 km/h
760 10-11-2007 07:54:02 4.5 C 5.72 g/m*3 4.5 C 0 km/h
761 10-11-2007 08:06:03 4.7 C 5.8 g/m*3 4.7 C 0 km/h
762 10-11-2007 08:18:02 4.7 C 5.86 g/m*3 4.7 C 0 km/h
763 10-11-2007 08:30:02 4.8 C 5.97 g/m*3 4.8 C 0 km/h
764 10-11-2007 08:42:02 4.9 C 6.01 g/m*3 4.9 C 0 km/h
765 10-11-2007 08:54:02 5.1 C 6.09 g/m*3 5.1 C 0 km/h
766 10-11-2007 09:06:02 5.2 C 6.13 g/m*3 5.2 C 0 km/h
767 10-11-2007 09:18:03 5.3 C 6.24 g/m*3 5.3 C 0 km/h
768 10-11-2007 09:30:03 5.4 C 6.28 g/m*3 5.4 C 0 km/h
769 10-11-2007 09:42:02 5.5 C 6.32 g/m*3 5.5 C 0 km/h
770 10-11-2007 09:54:03 5.6 C 6.36 g/m*3 5.6 C 0 km/h
771 10-11-2007 10:06:02 5.9 C 6.49 g/m*3 5.9 C 0 km/h
772 10-11-2007 10:18:03 6.1 C 6.43 g/m*3 6.1 C 0 km/h
773 10-11-2007 10:30:03 6.2 C 6.47 g/m*3 6.2 C 0 km/h
774 10-11-2007 10:42:02 6.2 C 6.47 g/m*3 6.2 C 0 km/h
775 10-11-2007 10:54:02 6.2 C 6.55 g/m*3 6.2 C 0 km/h
Sensor: Nr:Datum:Temp:Abs-Feuchte:Windchill:Wind:
Aussen-T/F 776 10-11-2007 11:06:02 6.2 C 6.62 g/m*3 6.2 C 0 km/h
777 10-11-2007 11:18:02 6.1 C 6.65 g/m*3 6.1 C 0 km/h
778 10-11-2007 11:30:02 6.3 C 6.81 g/m*3 6.3 C 0 km/h
779 10-11-2007 11:42:02 6.8 C 7.11 g/m*3 6.8 C 0 km/h
780 10-11-2007 11:54:01 7.4 C 7.32 g/m*3 7.4 C 0 km/h
781 10-11-2007 12:06:02 8.6 C 7.56 g/m*3 8.6 C 0 km/h
782 10-11-2007 12:18:02 9.3 C 7.1 g/m*3 9.3 C 0 km/h
783 10-11-2007 12:30:02 9.8 C 6.87 g/m*3 9.8 C 0 km/h
784 10-11-2007 12:42:02 10 C 6.58 g/m*3 10 C 0 km/h
785 10-11-2007 12:54:03 10.1 C 6.52 g/m*3 10.1 C 0 km/h
786 10-11-2007 13:06:03 9.9 C 6.63 g/m*3 9.9 C 0 km/h
787 10-11-2007 13:18:02 9.2 C 6.61 g/m*3 9.2 C 0 km/h
788 10-11-2007 13:30:02 8.6 C 6.87 g/m*3 8.6 C 0 km/h
789 10-11-2007 13:42:02 8.9 C 7.1 g/m*3 8.9 C 0 km/h
790 10-11-2007 13:54:02 8.6 C 6.96 g/m*3 8.6 C 0 km/h
791 10-11-2007 14:06:03 7.4 C 6.36 g/m*3 7.4 C 0 km/h
792 10-11-2007 14:18:02 7.7 C 6.65 g/m*3 7.7 C 0 km/h
793 10-11-2007 14:30:02 8.1 C 6.66 g/m*3 8.1 C 0 km/h
794 10-11-2007 14:42:02 8.4 C 6.53 g/m*3 8.4 C 0 km/h
795 10-11-2007 14:54:01 8.6 C 6.36 g/m*3 8.6 C 0 km/h
796 10-11-2007 15:06:01 8.5 C 6.15 g/m*3 8.5 C 0 km/h
797 10-11-2007 15:18:02 8.6 C 5.93 g/m*3 8.6 C 0 km/h
798 10-11-2007 15:30:02 8.4 C 6.02 g/m*3 8.4 C 0 km/h
799 10-11-2007 15:42:02 8.1 C 5.91 g/m*3 8.1 C 0 km/h
800 10-11-2007 15:54:02 8.1 C 5.91 g/m*3 8.1 C 0 km/h
Sensor: Nr:Datum:Temp:Abs-Feuchte:Windchill:Wind:
Aussen-T/F 801 10-11-2007 16:06:02 8.1 C 5.91 g/m*3 8.1 C 0 km/h
802 10-11-2007 16:18:02 8 C 5.79 g/m*3 8 C 0 km/h
803 10-11-2007 16:30:02 7.9 C 5.83 g/m*3 7.9 C 0 km/h
804 10-11-2007 16:42:03 7.5 C 5.84 g/m*3 7.5 C 0 km/h
805 10-11-2007 16:54:03 7.3 C 5.85 g/m*3 7.3 C 0 km/h
806 10-11-2007 17:06:02 7 C 5.89 g/m*3 7 C 0 km/h
807 10-11-2007 17:18:02 7 C 5.97 g/m*3 7 C 0 km/h
808 10-11-2007 17:30:02 7.4 C 5.88 g/m*3 7.4 C 0 km/h
809 10-11-2007 17:42:03 7.5 C 5.92 g/m*3 7.5 C 0 km/h
810 10-11-2007 17:54:02 7.5 C 5.84 g/m*3 7.5 C 0 km/h
811 10-11-2007 18:06:01 7.4 C 5.81 g/m*3 7.4 C 0 km/h
812 10-11-2007 18:18:02 7.6 C 5.64 g/m*3 7.6 C 0 km/h
813 10-11-2007 18:30:02 7.6 C 5.48 g/m*3 7.6 C 0 km/h
814 10-11-2007 18:42:02 7.8 C 5.47 g/m*3 7.8 C 0 km/h
815 10-11-2007 18:54:02 7.8 C 5.47 g/m*3 7.8 C 0 km/h
816 10-11-2007 19:06:02 7.9 C 5.5 g/m*3 7.9 C 0 km/h
817 10-11-2007 19:18:02 8 C 5.37 g/m*3 8 C 0 km/h
818 10-11-2007 19:30:03 7.9 C 5.59 g/m*3 7.9 C 0 km/h
819 10-11-2007 19:42:02 7.9 C 5.67 g/m*3 7.9 C 0 km/h
820 10-11-2007 19:54:02 7.7 C 5.76 g/m*3 7.7 C 0 km/h
821 10-11-2007 20:06:02 7.8 C 5.71 g/m*3 7.8 C 0 km/h
822 10-11-2007 20:18:03 7.9 C 5.75 g/m*3 7.9 C 0 km/h
823 10-11-2007 20:30:03 8.1 C 5.49 g/m*3 8.1 C 0 km/h
824 10-11-2007 20:42:03 7.8 C 5.63 g/m*3 7.8 C 0 km/h
825 10-11-2007 20:54:02 7.5 C 5.76 g/m*3 7.5 C 0 km/h
Sensor: Nr:Datum:Temp:Abs-Feuchte:Windchill:Wind:
Aussen-T/F 826 10-11-2007 21:06:02 7.1 C 5.93 g/m*3 7.1 C 0 km/h
827 10-11-2007 21:18:02 6.9 C 6.08 g/m*3 6.9 C 0 km/h
828 10-11-2007 21:30:02 6.8 C 6.19 g/m*3 6.8 C 0 km/h
829 10-11-2007 21:42:01 6.7 C 6.23 g/m*3 6.7 C 0 km/h
830 10-11-2007 21:54:02 6.5 C 6.3 g/m*3 6.5 C 0 km/h
831 10-11-2007 22:06:02 6.4 C 6.41 g/m*3 6.4 C 0 km/h
832 10-11-2007 22:18:01 6.3 C 6.44 g/m*3 6.3 C 0 km/h
833 10-11-2007 22:30:01 6.3 C 6.51 g/m*3 6.3 C 0 km/h
834 10-11-2007 22:42:01 6.3 C 6.59 g/m*3 6.3 C 0 km/h
835 10-11-2007 22:54:02 6.2 C 6.55 g/m*3 6.2 C 0 km/h
836 10-11-2007 23:06:02 6.2 C 6.62 g/m*3 6.2 C 0 km/h
837 10-11-2007 23:18:03 6.2 C 6.69 g/m*3 6.2 C 0 km/h
838 10-11-2007 23:30:03 6.1 C 6.65 g/m*3 6.1 C 0 km/h
839 10-11-2007 23:42:03 6.1 C 6.72 g/m*3 6.1 C 0 km/h
840 10-11-2007 23:54:02 6.2 C 6.77 g/m*3 6.2 C 0 km/h
841 11-11-2007 00:06:03 6.4 C 6.93 g/m*3 6.4 C 0 km/h
842 11-11-2007 00:18:02 6.5 C 6.97 g/m*3 6.5 C 0 km/h
843 11-11-2007 00:30:02 6.4 C 6.93 g/m*3 6.4 C 0 km/h
844 11-11-2007 00:42:02 6.6 C 7.02 g/m*3 6.6 C 0 km/h
845 11-11-2007 00:54:02 6.6 C 7.1 g/m*3 6.6 C 0 km/h
846 11-11-2007 01:06:01 6.8 C 7.19 g/m*3 6.8 C 0 km/h
847 11-11-2007 01:18:01 6.9 C 7.31 g/m*3 6.9 C 0 km/h
848 11-11-2007 01:30:01 7 C 7.28 g/m*3 7 C 0 km/h
849 11-11-2007 01:42:01 7.1 C 7.41 g/m*3 7.1 C 0 km/h
850 11-11-2007 01:54:02 7.2 C 7.46 g/m*3 7.2 C 0 km/h
Sensor: Nr:Datum:Temp:Abs-Feuchte:Windchill:Wind:
Aussen-T/F 851 11-11-2007 02:06:02 7.5 C 7.6 g/m*3 7.5 C 0 km/h
852 11-11-2007 02:18:02 7.7 C 7.7 g/m*3 7.7 C 0 km/h
853 11-11-2007 02:30:02 7.8 C 7.75 g/m*3 7.8 C 0 km/h
854 11-11-2007 02:42:02 8.1 C 7.9 g/m*3 8.1 C 0 km/h
855 11-11-2007 02:55:03 8.5 C 8.11 g/m*3 8.5 C 0 km/h
856 11-11-2007 03:07:03 8.7 C 8.22 g/m*3 8.7 C 0 km/h
857 11-11-2007 03:19:04 8.7 C 8.22 g/m*3 8.7 C 0 km/h
858 11-11-2007 03:31:01 8.9 C 8.32 g/m*3 8.9 C 0 km/h
859 11-11-2007 03:43:01 9 C 8.2 g/m*3 9 C 0 km/h
860 11-11-2007 03:55:01 9.1 C 8.07 g/m*3 9.1 C 0 km/h
861 11-11-2007 04:07:01 9.4 C 7.78 g/m*3 9.4 C 0 km/h
862 11-11-2007 04:19:01 9.3 C 7.46 g/m*3 9.3 C 0 km/h
863 11-11-2007 04:31:02 9.3 C 7.37 g/m*3 9.3 C 0 km/h
864 11-11-2007 04:43:02 9.2 C 7.32 g/m*3 9.2 C 0 km/h
865 11-11-2007 04:55:02 9.6 C 7.33 g/m*3 9.6 C 0 km/h
866 11-11-2007 05:07:02 9.6 C 7.24 g/m*3 9.6 C 0 km/h
867 11-11-2007 05:19:01 9.6 C 7.24 g/m*3 9.6 C 0 km/h
868 11-11-2007 05:31:02 9.7 C 7.19 g/m*3 9.7 C 0 km/h
869 11-11-2007 05:43:02 9.8 C 7.14 g/m*3 9.8 C 0 km/h
870 11-11-2007 05:55:02 9.7 C 7.19 g/m*3 9.7 C 0 km/h
871 11-11-2007 06:07:02 9.4 C 7.24 g/m*3 9.4 C 0 km/h
872 11-11-2007 06:19:02 9.4 C 7.33 g/m*3 9.4 C 0 km/h
873 11-11-2007 06:31:02 9.4 C 7.33 g/m*3 9.4 C 0 km/h
874 11-11-2007 06:43:02 9.7 C 7.28 g/m*3 9.7 C 0 km/h
875 11-11-2007 06:55:01 9.7 C 7.28 g/m*3 9.7 C 0 km/h
Sensor: Nr:Datum:Temp:Abs-Feuchte:Windchill:Wind:
Aussen-T/F 876 11-11-2007 07:07:02 9.8 C 7.14 g/m*3 9.8 C 0 km/h
877 11-11-2007 07:19:01 9.9 C 7 g/m*3 9.9 C 0 km/h
878 11-11-2007 07:31:02 9.9 C 7 g/m*3 9.9 C 0 km/h
879 11-11-2007 07:43:02 9.9 C 7 g/m*3 9.9 C 0 km/h
880 11-11-2007 07:55:02 9.9 C 7 g/m*3 9.9 C 0 km/h
881 11-11-2007 08:07:02 9.9 C 7 g/m*3 9.9 C 0 km/h
882 11-11-2007 08:19:02 9.9 C 7 g/m*3 9.9 C 0 km/h
883 11-11-2007 08:31:02 10 C 6.86 g/m*3 10 C 0 km/h
884 11-11-2007 08:43:02 9.8 C 6.96 g/m*3 9.8 C 0 km/h
885 11-11-2007 08:55:03 9.4 C 7.15 g/m*3 9.4 C 0 km/h
886 11-11-2007 09:07:03 9.2 C 7.23 g/m*3 9.2 C 0 km/h
887 11-11-2007 09:19:02 9.3 C 7.28 g/m*3 9.3 C 0 km/h
888 11-11-2007 09:31:02 9.4 C 7.24 g/m*3 9.4 C 0 km/h
889 11-11-2007 09:43:02 9.4 C 7.33 g/m*3 9.4 C 0 km/h
890 11-11-2007 09:55:02 9.7 C 7.28 g/m*3 9.7 C 0 km/h
891 11-11-2007 10:07:01 10 C 7.05 g/m*3 10 C 0 km/h
892 11-11-2007 10:19:01 10.2 C 7.04 g/m*3 10.2 C 0 km/h
893 11-11-2007 10:31:01 10.2 C 6.95 g/m*3 10.2 C 0 km/h
894 11-11-2007 10:43:01 10.4 C 7.04 g/m*3 10.4 C 0 km/h
895 11-11-2007 10:55:02 9.9 C 7.28 g/m*3 9.9 C 0 km/h
896 11-11-2007 11:07:02 9.7 C 7.38 g/m*3 9.7 C 0 km/h
897 11-11-2007 11:19:02 9.6 C 7.51 g/m*3 9.6 C 0 km/h
898 11-11-2007 11:31:02 9.5 C 7.55 g/m*3 9.5 C 0 km/h
899 11-11-2007 11:43:02 9.2 C 7.5 g/m*3 9.2 C 0 km/h
900 11-11-2007 11:55:02 9.2 C 7.23 g/m*3 9.2 C 0 km/h
Sensor: Nr:Datum:Temp:Abs-Feuchte:Windchill:Wind:
Aussen-T/F 901 11-11-2007 12:07:02 9.3 C 6.65 g/m*3 9.3 C 0 km/h
902 11-11-2007 12:19:02 9.2 C 6.52 g/m*3 9.2 C 0 km/h
903 11-11-2007 12:31:01 9.3 C 6.47 g/m*3 9.3 C 0 km/h
904 11-11-2007 12:43:01 9.6 C 6.41 g/m*3 9.6 C 0 km/h
905 11-11-2007 12:55:02 9.9 C 6.44 g/m*3 9.9 C 0 km/h
906 11-11-2007 13:07:02 10.3 C 6.42 g/m*3 10.3 C 0 km/h
907 11-11-2007 13:19:02 10.4 C 6.46 g/m*3 10.4 C 0 km/h
908 11-11-2007 13:31:02 10.4 C 6.36 g/m*3 10.4 C 0 km/h
909 11-11-2007 13:43:02 10.4 C 6.36 g/m*3 10.4 C 0 km/h
910 11-11-2007 13:55:02 10.6 C 6.25 g/m*3 10.6 C 0 km/h
911 11-11-2007 14:07:02 11.1 C 6.25 g/m*3 11.1 C 0 km/h
912 11-11-2007 14:19:02 9.3 C 6.02 g/m*3 9.3 C 0 km/h
913 11-11-2007 14:31:02 8.1 C 6.57 g/m*3 8.1 C 0 km/h
914 11-11-2007 14:43:02 7.8 C 6.69 g/m*3 7.8 C 0 km/h
915 11-11-2007 14:55:01 7.5 C 6.72 g/m*3 7.5 C 0 km/h
916 11-11-2007 15:07:02 7.9 C 6.9 g/m*3 7.9 C 0 km/h
917 11-11-2007 15:19:02 8.8 C 6.96 g/m*3 8.8 C 0 km/h
918 11-11-2007 15:31:02 8.4 C 6.7 g/m*3 8.4 C 0 km/h
919 11-11-2007 15:43:02 8 C 6.7 g/m*3 8 C 0 km/h
920 11-11-2007 15:55:02 7.5 C 6.56 g/m*3 7.5 C 0 km/h
921 11-11-2007 16:07:02 7.1 C 6.4 g/m*3 7.1 C 0 km/h
922 11-11-2007 16:19:02 6.7 C 6.38 g/m*3 6.7 C 0 km/h
923 11-11-2007 16:31:02 6.8 C 6.42 g/m*3 6.8 C 0 km/h
924 11-11-2007 16:43:02 6.9 C 6.47 g/m*3 6.9 C 0 km/h
925 11-11-2007 16:55:02 6.7 C 6.23 g/m*3 6.7 C 0 km/h
Sensor: Nr:Datum:Temp:Abs-Feuchte:Windchill:Wind:
Aussen-T/F 926 11-11-2007 17:07:02 6.4 C 6.11 g/m*3 6.4 C 0 km/h
927 11-11-2007 17:19:02 6.5 C 6.07 g/m*3 6.5 C 0 km/h
928 11-11-2007 17:31:01 6.2 C 6.03 g/m*3 6.2 C 0 km/h
929 11-11-2007 17:43:01 6 C 6.02 g/m*3 6 C 0 km/h
930 11-11-2007 17:55:02 6 C 6.1 g/m*3 6 C 0 km/h
931 11-11-2007 18:07:02 6.2 C 6.1 g/m*3 6.2 C 0 km/h
932 11-11-2007 18:19:01 5.9 C 5.98 g/m*3 5.9 C 0 km/h
933 11-11-2007 18:31:02 5.5 C 5.83 g/m*3 5.5 C 0 km/h
934 11-11-2007 18:43:02 5.2 C 5.71 g/m*3 5.2 C 0 km/h
935 11-11-2007 18:55:02 5.4 C 5.86 g/m*3 5.4 C 0 km/h
936 11-11-2007 19:07:02 5.6 C 5.87 g/m*3 5.6 C 0 km/h
937 11-11-2007 19:19:01 5.7 C 5.84 g/m*3 5.7 C 0 km/h
938 11-11-2007 19:31:02 5.7 C 5.76 g/m*3 5.7 C 0 km/h
939 11-11-2007 19:43:02 5.6 C 5.59 g/m*3 5.6 C 0 km/h
940 11-11-2007 19:55:01 5.2 C 5.51 g/m*3 5.2 C 0 km/h
941 11-11-2007 20:07:01 4.9 C 5.6 g/m*3 4.9 C 0 km/h
942 11-11-2007 20:19:02 4.9 C 5.67 g/m*3 4.9 C 0 km/h
943 11-11-2007 20:31:02 4.9 C 5.67 g/m*3 4.9 C 0 km/h
944 11-11-2007 20:43:02 4.9 C 5.54 g/m*3 4.9 C 0 km/h
945 11-11-2007 20:55:02 4.3 C 5.38 g/m*3 4.3 C 0 km/h
946 11-11-2007 21:07:02 3.8 C 5.4 g/m*3 3.8 C 0 km/h
947 11-11-2007 21:19:02 3.7 C 5.42 g/m*3 3.7 C 0 km/h
948 11-11-2007 21:31:02 3.9 C 5.56 g/m*3 3.9 C 0 km/h
949 11-11-2007 21:43:02 4 C 5.59 g/m*3 4 C 0 km/h
950 11-11-2007 21:55:02 4.1 C 5.63 g/m*3 4.1 C 0 km/h
Sensor: Nr:Datum:Temp:Abs-Feuchte:Windchill:Wind:
Aussen-T/F 951 11-11-2007 22:07:02 4.3 C 5.64 g/m*3 4.3 C 0 km/h
952 11-11-2007 22:19:02 4.3 C 5.51 g/m*3 4.3 C 0 km/h
953 11-11-2007 22:31:02 4.3 C 5.51 g/m*3 4.3 C 0 km/h
954 11-11-2007 22:43:02 4.6 C 5.62 g/m*3 4.6 C 0 km/h
955 11-11-2007 22:55:02 4.7 C 5.6 g/m*3 4.7 C 0 km/h
956 11-11-2007 23:07:02 4.5 C 5.46 g/m*3 4.5 C 0 km/h
957 11-11-2007 23:19:03 4.5 C 5.46 g/m*3 4.5 C 0 km/h
958 11-11-2007 23:31:03 4.5 C 5.39 g/m*3 4.5 C 0 km/h
959 11-11-2007 23:43:03 4.7 C 5.33 g/m*3 4.7 C 0 km/h
960 11-11-2007 23:55:02 4.6 C 5.29 g/m*3 4.6 C 0 km/h
961 12-11-2007 00:07:03 4.6 C 5.29 g/m*3 4.6 C 0 km/h
962 12-11-2007 00:19:03 4.4 C 5.16 g/m*3 4.4 C 0 km/h
963 12-11-2007 00:31:03 4.1 C 5.12 g/m*3 4.1 C 0 km/h
964 12-11-2007 00:43:03 4.1 C 5.18 g/m*3 4.1 C 0 km/h
965 12-11-2007 00:55:02 4.3 C 5.19 g/m*3 4.3 C 0 km/h
966 12-11-2007 01:07:02 4 C 5.09 g/m*3 4 C 0 km/h
967 12-11-2007 01:19:02 4.1 C 5.12 g/m*3 4.1 C 0 km/h
968 12-11-2007 01:31:02 4 C 5.15 g/m*3 4 C 0 km/h
969 12-11-2007 01:43:02 4 C 5.15 g/m*3 4 C 0 km/h
970 12-11-2007 01:55:02 4.2 C 5.15 g/m*3 4.2 C 0 km/h
971 12-11-2007 02:07:02 4.1 C 5.06 g/m*3 4.1 C 0 km/h
972 12-11-2007 02:19:01 3.9 C 5.05 g/m*3 3.9 C 0 km/h
973 12-11-2007 02:31:01 4 C 5.09 g/m*3 4 C 0 km/h
974 12-11-2007 02:43:01 4.1 C 5.06 g/m*3 4.1 C 0 km/h
975 12-11-2007 02:56:04 4 C 4.96 g/m*3 4 C 0 km/h
Sensor: Nr:Datum:Temp:Abs-Feuchte:Windchill:Wind:
Aussen-T/F 976 12-11-2007 03:08:04 3.6 C 4.95 g/m*3 3.6 C 0 km/h
977 12-11-2007 03:20:04 3.7 C 5.05 g/m*3 3.7 C 0 km/h
978 12-11-2007 03:32:01 3.3 C 4.91 g/m*3 3.3 C 0 km/h
979 12-11-2007 03:44:01 3.2 C 4.94 g/m*3 3.2 C 0 km/h
980 12-11-2007 03:56:01 3.3 C 5.04 g/m*3 3.3 C 0 km/h
981 12-11-2007 04:08:01 3.4 C 5.07 g/m*3 3.4 C 0 km/h
982 12-11-2007 04:20:02 3.6 C 5.08 g/m*3 3.6 C 0 km/h
983 12-11-2007 04:32:02 3.8 C 5.02 g/m*3 3.8 C 0 km/h
984 12-11-2007 04:44:02 3.9 C 4.93 g/m*3 3.9 C 0 km/h
985 12-11-2007 04:56:02 3.9 C 4.93 g/m*3 3.9 C 0 km/h
986 12-11-2007 05:08:02 4 C 4.9 g/m*3 4 C 0 km/h
987 12-11-2007 05:20:03 3.8 C 4.96 g/m*3 3.8 C 0 km/h
988 12-11-2007 05:32:03 3.7 C 4.92 g/m*3 3.7 C 0 km/h
989 12-11-2007 05:44:03 3.8 C 4.96 g/m*3 3.8 C 0 km/h
990 12-11-2007 05:56:03 3.6 C 4.89 g/m*3 3.6 C 0 km/h
991 12-11-2007 06:08:02 3.5 C 4.86 g/m*3 3.5 C 0 km/h
992 12-11-2007 06:20:02 3.5 C 4.92 g/m*3 3.5 C 0 km/h
993 12-11-2007 06:32:02 3.6 C 4.89 g/m*3 3.6 C 0 km/h
994 12-11-2007 06:44:02 3.5 C 4.86 g/m*3 3.5 C 0 km/h
995 12-11-2007 06:56:02 3.4 C 4.83 g/m*3 3.4 C 0 km/h
996 12-11-2007 07:08:02 3.6 C 4.95 g/m*3 3.6 C 0 km/h
997 12-11-2007 07:20:02 3.5 C 4.86 g/m*3 3.5 C 0 km/h
998 12-11-2007 07:32:02 3.3 C 4.79 g/m*3 3.3 C 0 km/h
999 12-11-2007 07:44:02 3.1 C 4.79 g/m*3 3.1 C 0 km/h
1000 12-11-2007 07:56:02 2.9 C 4.84 g/m*3 2.9 C 0 km/h
Sensor: Nr:Datum:Temp:Abs-Feuchte:Windchill:Wind:
Aussen-T/F 1001 12-11-2007 08:08:02 2.9 C 4.9 g/m*3 2.9 C 0 km/h
1002 12-11-2007 08:20:02 2.9 C 4.9 g/m*3 2.9 C 0 km/h
1003 12-11-2007 08:32:02 3 C 4.82 g/m*3 3 C 0 km/h
1004 12-11-2007 08:44:02 3.1 C 4.79 g/m*3 3.1 C 0 km/h
1005 12-11-2007 08:56:03 3.1 C 4.79 g/m*3 3.1 C 0 km/h
1006 12-11-2007 09:08:03 3.2 C 4.76 g/m*3 3.2 C 0 km/h
1007 12-11-2007 09:20:03 3.6 C 4.83 g/m*3 3.6 C 0 km/h
1008 12-11-2007 09:32:03 4.1 C 4.74 g/m*3 4.1 C 0 km/h
1009 12-11-2007 09:44:03 4.7 C 4.86 g/m*3 4.7 C 0 km/h
1010 12-11-2007 09:56:02 5 C 4.82 g/m*3 5 C 0 km/h
1011 12-11-2007 10:08:02 5.3 C 4.92 g/m*3 5.3 C 0 km/h
1012 12-11-2007 10:20:02 5.2 C 4.82 g/m*3 5.2 C 0 km/h
1013 12-11-2007 10:32:01 5.2 C 4.82 g/m*3 5.2 C 0 km/h
1014 12-11-2007 10:44:01 5.3 C 4.85 g/m*3 5.3 C 0 km/h
1015 12-11-2007 10:56:02 5.6 C 4.88 g/m*3 5.6 C 0 km/h
1016 12-11-2007 11:08:02 6.2 C 4.93 g/m*3 6.2 C 0 km/h
1017 12-11-2007 11:20:02 6.7 C 4.86 g/m*3 6.7 C 0 km/h
1018 12-11-2007 11:32:02 6.6 C 4.83 g/m*3 6.6 C 0 km/h
1019 12-11-2007 11:44:02 6.7 C 4.79 g/m*3 6.7 C 0 km/h
1020 12-11-2007 11:56:02 6.9 C 4.7 g/m*3 6.9 C 0 km/h
1021 12-11-2007 12:08:02 7.2 C 4.4 g/m*3 7.2 C 0 km/h
1022 12-11-2007 12:20:02 7.2 C 4.24 g/m*3 7.2 C 0 km/h
1023 12-11-2007 12:32:02 7.4 C 4.14 g/m*3 7.4 C 0 km/h
1024 12-11-2007 12:44:02 7.5 C 4.16 g/m*3 7.5 C 0 km/h
1025 12-11-2007 12:56:02 8 C 3.97 g/m*3 8 C 0 km/h
Sensor: Nr:Datum:Temp:Abs-Feuchte:Windchill:Wind:
Aussen-T/F 1026 12-11-2007 13:08:02 8.1 C 3.99 g/m*3 8.1 C 0 km/h
1027 12-11-2007 13:20:02 8 C 3.89 g/m*3 8 C 0 km/h
1028 12-11-2007 13:32:02 8.1 C 3.91 g/m*3 8.1 C 0 km/h
1029 12-11-2007 13:44:02 8.1 C 3.91 g/m*3 8.1 C 0 km/h
1030 12-11-2007 13:56:01 8 C 3.97 g/m*3 8 C 0 km/h
1031 12-11-2007 14:08:01 8.1 C 3.91 g/m*3 8.1 C 0 km/h
1032 12-11-2007 14:20:02 8.1 C 3.99 g/m*3 8.1 C 0 km/h
1033 12-11-2007 14:32:02 8.1 C 3.91 g/m*3 8.1 C 0 km/h
1034 12-11-2007 14:44:02 8 C 3.97 g/m*3 8 C 0 km/h
1035 12-11-2007 14:56:02 8.1 C 4.08 g/m*3 8.1 C 0 km/h
1036 12-11-2007 15:08:02 8 C 3.97 g/m*3 8 C 0 km/h
1037 12-11-2007 15:20:02 8 C 3.97 g/m*3 8 C 0 km/h
1038 12-11-2007 15:32:02 7.8 C 4.08 g/m*3 7.8 C 0 km/h
1039 12-11-2007 15:44:02 7.5 C 4 g/m*3 7.5 C 0 km/h
1040 12-11-2007 15:56:02 7.2 C 3.92 g/m*3 7.2 C 0 km/h
1041 12-11-2007 16:08:02 6.9 C 4 g/m*3 6.9 C 0 km/h
1042 12-11-2007 16:20:02 7.1 C 3.98 g/m*3 7.1 C 0 km/h
1043 12-11-2007 16:32:02 7 C 4.03 g/m*3 7 C 0 km/h
1044 12-11-2007 16:44:02 7.1 C 4.06 g/m*3 7.1 C 0 km/h
1045 12-11-2007 16:56:03 7.1 C 4.21 g/m*3 7.1 C 0 km/h
1046 12-11-2007 17:08:03 6.6 C 4.6 g/m*3 6.6 C 0 km/h
1047 12-11-2007 17:20:02 5.7 C 4.91 g/m*3 5.7 C 0 km/h
1048 12-11-2007 17:32:02 5.2 C 5.16 g/m*3 5.2 C 0 km/h
1049 12-11-2007 17:44:02 5 C 5.23 g/m*3 5 C 0 km/h
1050 12-11-2007 17:56:02 4.8 C 5.36 g/m*3 4.8 C 0 km/h
Sensor: Nr:Datum:Temp:Abs-Feuchte:Windchill:Wind:
Aussen-T/F 1051 12-11-2007 18:08:03 5.2 C 5.37 g/m*3 5.2 C 0 km/h
1052 12-11-2007 18:20:02 5.7 C 5.12 g/m*3 5.7 C 0 km/h
1053 12-11-2007 18:32:03 5.8 C 5.09 g/m*3 5.8 C 0 km/h
1054 12-11-2007 18:44:03 5.8 C 4.94 g/m*3 5.8 C 0 km/h
1055 12-11-2007 18:56:02 5.7 C 4.84 g/m*3 5.7 C 0 km/h
1056 12-11-2007 19:08:03 5.8 C 4.94 g/m*3 5.8 C 0 km/h
1057 12-11-2007 19:20:02 5.7 C 4.84 g/m*3 5.7 C 0 km/h
1058 12-11-2007 19:32:02 5.4 C 4.88 g/m*3 5.4 C 0 km/h
1059 12-11-2007 19:44:02 5.4 C 4.95 g/m*3 5.4 C 0 km/h
1060 12-11-2007 19:56:02 5.5 C 4.92 g/m*3 5.5 C 0 km/h
1061 12-11-2007 20:08:01 5.5 C 4.92 g/m*3 5.5 C 0 km/h
1062 12-11-2007 20:20:01 5.5 C 4.85 g/m*3 5.5 C 0 km/h
1063 12-11-2007 20:32:01 5.5 C 4.78 g/m*3 5.5 C 0 km/h
1064 12-11-2007 20:44:01 5.3 C 4.85 g/m*3 5.3 C 0 km/h
1065 12-11-2007 20:56:01 5.2 C 4.82 g/m*3 5.2 C 0 km/h
1066 12-11-2007 21:08:02 5.2 C 4.82 g/m*3 5.2 C 0 km/h
1067 12-11-2007 21:20:02 5.2 C 4.75 g/m*3 5.2 C 0 km/h
1068 12-11-2007 21:32:02 5.2 C 4.75 g/m*3 5.2 C 0 km/h
1069 12-11-2007 21:44:02 5.2 C 4.75 g/m*3 5.2 C 0 km/h
1070 12-11-2007 21:56:01 5.2 C 4.68 g/m*3 5.2 C 0 km/h
1071 12-11-2007 22:08:02 5 C 4.69 g/m*3 5 C 0 km/h
1072 12-11-2007 22:20:02 4.8 C 4.69 g/m*3 4.8 C 0 km/h
1073 12-11-2007 22:32:02 4.6 C 4.7 g/m*3 4.6 C 0 km/h
1074 12-11-2007 22:44:02 4.5 C 4.73 g/m*3 4.5 C 0 km/h
1075 12-11-2007 22:56:02 4.3 C 4.74 g/m*3 4.3 C 0 km/h
Sensor: Nr:Datum:Temp:Abs-Feuchte:Windchill:Wind:
Aussen-T/F 1076 12-11-2007 23:08:02 4.3 C 4.74 g/m*3 4.3 C 0 km/h
1077 12-11-2007 23:20:03 4.2 C 4.77 g/m*3 4.2 C 0 km/h
1078 12-11-2007 23:32:02 4.2 C 4.77 g/m*3 4.2 C 0 km/h
1079 12-11-2007 23:44:03 4.1 C 4.74 g/m*3 4.1 C 0 km/h
1080 12-11-2007 23:56:02 4 C 4.7 g/m*3 4 C 0 km/h
1081 13-11-2007 00:08:02 3.9 C 4.8 g/m*3 3.9 C 0 km/h
1082 13-11-2007 00:20:02 4 C 4.77 g/m*3 4 C 0 km/h
1083 13-11-2007 00:32:02 3.8 C 4.77 g/m*3 3.8 C 0 km/h
1084 13-11-2007 00:44:02 3.6 C 4.77 g/m*3 3.6 C 0 km/h
1085 13-11-2007 00:56:02 3.4 C 4.76 g/m*3 3.4 C 0 km/h
1086 13-11-2007 01:08:02 3.7 C 4.86 g/m*3 3.7 C 0 km/h
1087 13-11-2007 01:20:02 3.9 C 4.86 g/m*3 3.9 C 0 km/h
1088 13-11-2007 01:32:02 3.8 C 4.83 g/m*3 3.8 C 0 km/h
1089 13-11-2007 01:44:03 3.7 C 4.8 g/m*3 3.7 C 0 km/h
1090 13-11-2007 01:56:02 3.7 C 4.86 g/m*3 3.7 C 0 km/h
1091 13-11-2007 02:08:02 3.7 C 4.86 g/m*3 3.7 C 0 km/h
1092 13-11-2007 02:20:02 3.7 C 4.86 g/m*3 3.7 C 0 km/h
1093 13-11-2007 02:32:02 3.6 C 4.83 g/m*3 3.6 C 0 km/h
1094 13-11-2007 02:44:02 3.8 C 4.89 g/m*3 3.8 C 0 km/h
1095 13-11-2007 02:56:01 4 C 4.83 g/m*3 4 C 0 km/h
1096 13-11-2007 03:08:01 4.2 C 4.83 g/m*3 4.2 C 0 km/h
1097 13-11-2007 03:20:02 4.1 C 4.8 g/m*3 4.1 C 0 km/h
1098 13-11-2007 03:32:02 3.9 C 4.74 g/m*3 3.9 C 0 km/h
1099 13-11-2007 03:44:02 3.7 C 4.74 g/m*3 3.7 C 0 km/h
1100 13-11-2007 03:56:02 3.7 C 4.74 g/m*3 3.7 C 0 km/h
Sensor: Nr:Datum:Temp:Abs-Feuchte:Windchill:Wind:
Aussen-T/F 1101 13-11-2007 04:08:02 3.7 C 4.8 g/m*3 3.7 C 0 km/h
1102 13-11-2007 04:20:02 3.7 C 4.74 g/m*3 3.7 C 0 km/h
1103 13-11-2007 04:32:02 3.8 C 4.77 g/m*3 3.8 C 0 km/h
1104 13-11-2007 04:44:02 3.9 C 4.8 g/m*3 3.9 C 0 km/h
1105 13-11-2007 04:56:02 4 C 4.83 g/m*3 4 C 0 km/h
1106 13-11-2007 05:08:02 4 C 4.83 g/m*3 4 C 0 km/h
1107 13-11-2007 05:20:01 3.9 C 4.86 g/m*3 3.9 C 0 km/h
1108 13-11-2007 05:32:01 3.8 C 4.83 g/m*3 3.8 C 0 km/h
1109 13-11-2007 05:44:01 3.8 C 4.89 g/m*3 3.8 C 0 km/h
1110 13-11-2007 05:56:01 3.8 C 4.89 g/m*3 3.8 C 0 km/h
1111 13-11-2007 06:08:01 3.8 C 4.96 g/m*3 3.8 C 0 km/h
1112 13-11-2007 06:20:01 4 C 4.96 g/m*3 4 C 0 km/h
1113 13-11-2007 06:32:02 4.1 C 4.99 g/m*3 4.1 C 0 km/h
1114 13-11-2007 06:44:02 4.1 C 4.99 g/m*3 4.1 C 0 km/h
1115 13-11-2007 06:56:01 4 C 5.09 g/m*3 4 C 0 km/h
1116 13-11-2007 07:08:02 3.8 C 5.21 g/m*3 3.8 C 0 km/h
1117 13-11-2007 07:20:02 3.7 C 5.36 g/m*3 3.7 C 0 km/h
1118 13-11-2007 07:32:02 3.7 C 5.48 g/m*3 3.7 C 0 km/h
1119 13-11-2007 07:44:02 3.7 C 5.55 g/m*3 3.7 C 0 km/h
1120 13-11-2007 07:56:02 3.7 C 5.55 g/m*3 3.7 C 0 km/h
1121 13-11-2007 08:08:02 3.8 C 5.58 g/m*3 3.8 C 0 km/h
1122 13-11-2007 08:20:01 3.8 C 5.58 g/m*3 3.8 C 0 km/h
1123 13-11-2007 08:32:02 3.8 C 5.58 g/m*3 3.8 C 0 km/h
1124 13-11-2007 08:44:02 3.8 C 5.58 g/m*3 3.8 C 0 km/h
1125 13-11-2007 08:56:01 3.8 C 5.58 g/m*3 3.8 C 0 km/h
Sensor: Nr:Datum:Temp:Abs-Feuchte:Windchill:Wind:
Aussen-T/F 1126 13-11-2007 09:08:02 3.9 C 5.62 g/m*3 3.9 C 0 km/h
1127 13-11-2007 09:20:02 4.2 C 5.67 g/m*3 4.2 C 0 km/h
1128 13-11-2007 09:32:01 4.4 C 5.62 g/m*3 4.4 C 0 km/h
1129 13-11-2007 09:44:01 4.5 C 5.46 g/m*3 4.5 C 0 km/h
1130 13-11-2007 09:56:02 4.7 C 5.4 g/m*3 4.7 C 0 km/h
1131 13-11-2007 10:08:02 4.8 C 5.23 g/m*3 4.8 C 0 km/h
1132 13-11-2007 10:20:01 5 C 5.03 g/m*3 5 C 0 km/h
1133 13-11-2007 10:32:01 5.2 C 4.89 g/m*3 5.2 C 0 km/h
1134 13-11-2007 10:44:01 5.3 C 4.78 g/m*3 5.3 C 0 km/h
1135 13-11-2007 10:56:01 5.2 C 4.96 g/m*3 5.2 C 0 km/h
1136 13-11-2007 11:08:01 5.4 C 4.74 g/m*3 5.4 C 0 km/h
1137 13-11-2007 11:20:02 5.6 C 4.67 g/m*3 5.6 C 0 km/h
1138 13-11-2007 11:32:02 5.6 C 4.52 g/m*3 5.6 C 0 km/h
1139 13-11-2007 11:44:02 5.6 C 4.6 g/m*3 5.6 C 0 km/h
1140 13-11-2007 11:56:02 6 C 4.65 g/m*3 6 C 0 km/h
1141 13-11-2007 12:08:02 6.2 C 4.34 g/m*3 6.2 C 0 km/h
1142 13-11-2007 12:20:01 6.2 C 4.27 g/m*3 6.2 C 0 km/h
1143 13-11-2007 12:32:01 6.4 C 4.47 g/m*3 6.4 C 0 km/h
1144 13-11-2007 12:44:01 6.4 C 4.47 g/m*3 6.4 C 0 km/h
1145 13-11-2007 12:56:02 6.1 C 4.38 g/m*3 6.1 C 0 km/h
1146 13-11-2007 13:08:01 5.7 C 4.63 g/m*3 5.7 C 0 km/h
1147 13-11-2007 13:20:01 5.3 C 4.85 g/m*3 5.3 C 0 km/h
1148 13-11-2007 13:32:02 4.6 C 5.03 g/m*3 4.6 C 0 km/h
1149 13-11-2007 13:44:02 4.4 C 5.09 g/m*3 4.4 C 0 km/h
1150 13-11-2007 13:56:01 4.3 C 5.12 g/m*3 4.3 C 0 km/h
Sensor: Nr:Datum:Temp:Abs-Feuchte:Windchill:Wind:
Aussen-T/F 1151 13-11-2007 14:08:02 4.2 C 5.09 g/m*3 4.2 C 0 km/h
1152 13-11-2007 14:20:02 3.8 C 5.08 g/m*3 3.8 C 0 km/h
1153 13-11-2007 14:32:01 3.7 C 5.17 g/m*3 3.7 C 0 km/h
1154 13-11-2007 14:44:01 3.6 C 5.26 g/m*3 3.6 C 0 km/h
1155 13-11-2007 14:56:02 3.5 C 5.29 g/m*3 3.5 C 0 km/h
1156 13-11-2007 15:08:01 3.6 C 5.32 g/m*3 3.6 C 0 km/h
1157 13-11-2007 15:20:02 3.6 C 5.32 g/m*3 3.6 C 0 km/h
1158 13-11-2007 15:32:02 3.8 C 5.27 g/m*3 3.8 C 0 km/h
1159 13-11-2007 15:44:02 3.9 C 5.24 g/m*3 3.9 C 0 km/h
1160 13-11-2007 15:56:01 3.8 C 5.27 g/m*3 3.8 C 0 km/h
1161 13-11-2007 16:08:02 3.7 C 5.3 g/m*3 3.7 C 0 km/h
1162 13-11-2007 16:20:02 3.6 C 5.32 g/m*3 3.6 C 0 km/h
1163 13-11-2007 16:32:02 3.5 C 5.29 g/m*3 3.5 C 0 km/h
1164 13-11-2007 16:44:02 3.5 C 5.35 g/m*3 3.5 C 0 km/h
1165 13-11-2007 16:56:02 3.4 C 5.31 g/m*3 3.4 C 0 km/h
1166 13-11-2007 17:08:02 3.3 C 5.34 g/m*3 3.3 C 0 km/h
1167 13-11-2007 17:20:02 3.3 C 5.34 g/m*3 3.3 C 0 km/h
1168 13-11-2007 17:32:02 3.2 C 5.3 g/m*3 3.2 C 0 km/h
1169 13-11-2007 17:44:02 3.3 C 5.34 g/m*3 3.3 C 0 km/h
1170 13-11-2007 17:56:01 3.2 C 5.3 g/m*3 3.2 C 0 km/h
1171 13-11-2007 18:08:01 3.2 C 5.36 g/m*3 3.2 C 0 km/h
1172 13-11-2007 18:20:01 3.2 C 5.36 g/m*3 3.2 C 0 km/h
1173 13-11-2007 18:32:01 3.3 C 5.4 g/m*3 3.3 C 0 km/h
1174 13-11-2007 18:44:01 3.3 C 5.4 g/m*3 3.3 C 0 km/h
1175 13-11-2007 18:56:02 3.5 C 5.41 g/m*3 3.5 C 0 km/h
Sensor: Nr:Datum:Temp:Abs-Feuchte:Windchill:Wind:
Aussen-T/F 1176 13-11-2007 19:08:02 3.7 C 5.42 g/m*3 3.7 C 0 km/h
1177 13-11-2007 19:20:01 3.8 C 5.33 g/m*3 3.8 C 0 km/h
1178 13-11-2007 19:32:01 3.8 C 5.27 g/m*3 3.8 C 0 km/h
1179 13-11-2007 19:44:01 3.8 C 5.27 g/m*3 3.8 C 0 km/h
1180 13-11-2007 19:56:02 3.5 C 5.29 g/m*3 3.5 C 0 km/h
1181 13-11-2007 20:08:02 3.5 C 5.35 g/m*3 3.5 C 0 km/h
1182 13-11-2007 20:20:01 3.5 C 5.41 g/m*3 3.5 C 0 km/h
1183 13-11-2007 20:32:02 3.6 C 5.39 g/m*3 3.6 C 0 km/h
1184 13-11-2007 20:44:02 3.6 C 5.39 g/m*3 3.6 C 0 km/h
1185 13-11-2007 20:56:01 3.6 C 5.39 g/m*3 3.6 C 0 km/h
1186 13-11-2007 21:08:01 3.6 C 5.39 g/m*3 3.6 C 0 km/h
1187 13-11-2007 21:20:02 3.6 C 5.32 g/m*3 3.6 C 0 km/h
1188 13-11-2007 21:32:02 3.6 C 5.32 g/m*3 3.6 C 0 km/h
1189 13-11-2007 21:44:02 3.5 C 5.35 g/m*3 3.5 C 0 km/h
1190 13-11-2007 21:56:01 3.4 C 5.37 g/m*3 3.4 C 0 km/h
1191 13-11-2007 22:08:01 3.4 C 5.37 g/m*3 3.4 C 0 km/h
1192 13-11-2007 22:20:01 3.4 C 5.44 g/m*3 3.4 C 0 km/h
1193 13-11-2007 22:32:01 3.4 C 5.44 g/m*3 3.4 C 0 km/h
1194 13-11-2007 22:44:01 3.2 C 5.42 g/m*3 3.2 C 0 km/h
1195 13-11-2007 22:56:02 3.2 C 5.48 g/m*3 3.2 C 0 km/h
1196 13-11-2007 23:08:02 3.2 C 5.48 g/m*3 3.2 C 0 km/h
1197 13-11-2007 23:20:02 3.1 C 5.51 g/m*3 3.1 C 0 km/h
1198 13-11-2007 23:32:02 3.2 C 5.54 g/m*3 3.2 C 0 km/h
1199 13-11-2007 23:44:02 3.3 C 5.64 g/m*3 3.3 C 0 km/h
1200 13-11-2007 23:56:01 3.4 C 5.68 g/m*3 3.4 C 0 km/h
Sensor: Nr:Datum:Temp:Abs-Feuchte:Windchill:Wind:
Aussen-T/F 1201 14-11-2007 00:08:01 3.4 C 5.68 g/m*3 3.4 C 0 km/h
1202 14-11-2007 00:20:02 3.4 C 5.74 g/m*3 3.4 C 0 km/h
1203 14-11-2007 00:32:02 3.4 C 5.74 g/m*3 3.4 C 0 km/h
1204 14-11-2007 00:44:02 3.5 C 5.78 g/m*3 3.5 C 0 km/h
1205 14-11-2007 00:56:01 3.6 C 5.82 g/m*3 3.6 C 0 km/h
1206 14-11-2007 01:08:01 3.6 C 5.88 g/m*3 3.6 C 0 km/h
1207 14-11-2007 01:20:01 3.7 C 5.92 g/m*3 3.7 C 0 km/h
1208 14-11-2007 01:32:01 3.7 C 5.92 g/m*3 3.7 C 0 km/h
1209 14-11-2007 01:44:01 3.7 C 5.92 g/m*3 3.7 C 0 km/h
1210 14-11-2007 01:56:02 3.8 C 5.96 g/m*3 3.8 C 0 km/h
1211 14-11-2007 02:08:02 3.8 C 5.96 g/m*3 3.8 C 0 km/h
1212 14-11-2007 02:20:01 3.7 C 5.92 g/m*3 3.7 C 0 km/h
1213 14-11-2007 02:32:01 3.7 C 5.92 g/m*3 3.7 C 0 km/h
1214 14-11-2007 02:44:01 3.6 C 5.82 g/m*3 3.6 C 0 km/h
1215 14-11-2007 02:57:07 3.5 C 5.66 g/m*3 3.5 C 0 km/h
1216 14-11-2007 03:09:07 3.4 C 5.5 g/m*3 3.4 C 0 km/h
1217 14-11-2007 03:21:07 3.2 C 5.3 g/m*3 3.2 C 0 km/h
1218 14-11-2007 03:33:02 3.1 C 5.15 g/m*3 3.1 C 0 km/h
1219 14-11-2007 03:45:02 3.1 C 5.09 g/m*3 3.1 C 0 km/h
1220 14-11-2007 03:57:03 3 C 5.05 g/m*3 3 C 0 km/h
1221 14-11-2007 04:09:02 3 C 5.11 g/m*3 3 C 0 km/h
1222 14-11-2007 04:21:02 3 C 5.05 g/m*3 3 C 0 km/h
1223 14-11-2007 04:33:02 3 C 4.99 g/m*3 3 C 0 km/h
1224 14-11-2007 04:45:02 2.7 C 4.89 g/m*3 2.7 C 0 km/h
1225 14-11-2007 04:57:02 2.4 C 4.85 g/m*3 2.4 C 0 km/h
Sensor: Nr:Datum:Temp:Abs-Feuchte:Windchill:Wind:
Aussen-T/F 1226 14-11-2007 05:09:02 2.4 C 4.91 g/m*3 2.4 C 0 km/h
1227 14-11-2007 05:21:02 2.4 C 4.85 g/m*3 2.4 C 0 km/h
1228 14-11-2007 05:33:02 2.2 C 4.73 g/m*3 2.2 C 0 km/h
1229 14-11-2007 05:45:02 1.8 C 4.71 g/m*3 1.8 C 0 km/h
1230 14-11-2007 05:57:02 1.9 C 4.8 g/m*3 1.9 C 0 km/h
1231 14-11-2007 06:09:02 2.2 C 4.84 g/m*3 2.2 C 0 km/h
1232 14-11-2007 06:21:02 2.3 C 4.82 g/m*3 2.3 C 0 km/h
1233 14-11-2007 06:33:02 2.4 C 4.8 g/m*3 2.4 C 0 km/h
1234 14-11-2007 06:45:02 2.5 C 4.83 g/m*3 2.5 C 0 km/h
1235 14-11-2007 06:57:02 2.4 C 4.85 g/m*3 2.4 C 0 km/h
1236 14-11-2007 07:09:02 2.4 C 4.85 g/m*3 2.4 C 0 km/h
1237 14-11-2007 07:21:02 2.4 C 4.91 g/m*3 2.4 C 0 km/h
1238 14-11-2007 07:33:02 2.4 C 4.91 g/m*3 2.4 C 0 km/h
1239 14-11-2007 07:45:02 2.5 C 4.94 g/m*3 2.5 C 0 km/h
1240 14-11-2007 07:57:02 2.5 C 4.94 g/m*3 2.5 C 0 km/h
1241 14-11-2007 08:09:02 2.5 C 5 g/m*3 2.5 C 0 km/h
1242 14-11-2007 08:21:02 2.5 C 5 g/m*3 2.5 C 0 km/h
1243 14-11-2007 08:33:02 2.7 C 4.95 g/m*3 2.7 C 0 km/h
1244 14-11-2007 08:45:02 2.7 C 4.95 g/m*3 2.7 C 0 km/h
1245 14-11-2007 08:57:02 2.9 C 4.84 g/m*3 2.9 C 0 km/h
1246 14-11-2007 09:09:02 2.9 C 4.72 g/m*3 2.9 C 0 km/h
1247 14-11-2007 09:21:02 3 C 4.7 g/m*3 3 C 0 km/h
1248 14-11-2007 09:33:02 3 C 4.58 g/m*3 3 C 0 km/h
1249 14-11-2007 09:45:02 3.1 C 4.55 g/m*3 3.1 C 0 km/h
1250 14-11-2007 09:57:02 3 C 4.4 g/m*3 3 C 0 km/h
Sensor: Nr:Datum:Temp:Abs-Feuchte:Windchill:Wind:
Aussen-T/F 1251 14-11-2007 10:09:02 2.8 C 4.28 g/m*3 2.8 C 0 km/h
1252 14-11-2007 10:21:02 3.2 C 4.34 g/m*3 3.2 C 0 km/h
1253 14-11-2007 10:33:02 3.3 C 4.31 g/m*3 3.3 C 0 km/h
1254 14-11-2007 10:45:02 3.2 C 4.22 g/m*3 3.2 C 0 km/h
1255 14-11-2007 10:57:02 3 C 4.1 g/m*3 3 C 0 km/h
1256 14-11-2007 11:09:02 3.2 C 4.1 g/m*3 3.2 C 0 km/h
1257 14-11-2007 11:21:02 3.4 C 4.09 g/m*3 3.4 C 0 km/h
1258 14-11-2007 11:33:02 3.5 C 4.12 g/m*3 3.5 C 0 km/h
1259 14-11-2007 11:45:02 3.6 C 4.15 g/m*3 3.6 C 0 km/h
1260 14-11-2007 11:57:02 3.4 C 3.97 g/m*3 3.4 C 0 km/h
1261 14-11-2007 12:09:02 3.5 C 4.12 g/m*3 3.5 C 0 km/h
1262 14-11-2007 12:21:02 3.6 C 3.96 g/m*3 3.6 C 0 km/h
1263 14-11-2007 12:33:02 3.2 C 3.92 g/m*3 3.2 C 0 km/h
1264 14-11-2007 12:45:02 3.3 C 4 g/m*3 3.3 C 0 km/h
1265 14-11-2007 12:57:02 3.6 C 3.9 g/m*3 3.6 C 0 km/h
1266 14-11-2007 13:09:02 3.8 C 3.83 g/m*3 3.8 C 0 km/h
1267 14-11-2007 13:21:01 3.8 C 3.83 g/m*3 3.8 C 0 km/h
1268 14-11-2007 13:33:02 4.1 C 3.78 g/m*3 4.1 C 0 km/h
1269 14-11-2007 13:45:02 3.5 C 3.44 g/m*3 3.5 C 0 km/h
1270 14-11-2007 13:57:02 3.5 C 3.44 g/m*3 3.5 C 0 km/h
1271 14-11-2007 14:09:02 3.5 C 3.44 g/m*3 3.5 C 0 km/h
1272 14-11-2007 14:21:02 3.5 C 3.38 g/m*3 3.5 C 0 km/h
1273 14-11-2007 14:33:02 3.6 C 3.4 g/m*3 3.6 C 0 km/h
1274 14-11-2007 14:45:01 3.6 C 3.47 g/m*3 3.6 C 0 km/h
1275 14-11-2007 14:57:01 3.5 C 3.38 g/m*3 3.5 C 0 km/h
Sensor: Nr:Datum:Temp:Abs-Feuchte:Windchill:Wind:
Aussen-T/F 1276 14-11-2007 15:09:01 3.5 C 3.44 g/m*3 3.5 C 0 km/h
1277 14-11-2007 15:21:01 3.4 C 3.48 g/m*3 3.4 C 0 km/h
1278 14-11-2007 15:33:01 3.4 C 3.54 g/m*3 3.4 C 0 km/h
1279 14-11-2007 15:45:02 3.4 C 3.54 g/m*3 3.4 C 0 km/h
1280 14-11-2007 15:57:02 3.4 C 3.36 g/m*3 3.4 C 0 km/h
1281 14-11-2007 16:09:02 3.3 C 3.34 g/m*3 3.3 C 0 km/h
1282 14-11-2007 16:21:02 3.2 C 3.31 g/m*3 3.2 C 0 km/h
1283 14-11-2007 16:33:02 3.2 C 3.31 g/m*3 3.2 C 0 km/h
1284 14-11-2007 16:45:02 2.9 C 3.43 g/m*3 2.9 C 0 km/h
1285 14-11-2007 16:57:02 2.7 C 3.44 g/m*3 2.7 C 0 km/h
1286 14-11-2007 17:09:02 2.7 C 3.5 g/m*3 2.7 C 0 km/h
1287 14-11-2007 17:21:02 2.4 C 3.54 g/m*3 2.4 C 0 km/h
1288 14-11-2007 17:33:02 2.4 C 3.6 g/m*3 2.4 C 0 km/h
1289 14-11-2007 17:45:02 2.6 C 3.7 g/m*3 2.6 C 0 km/h
1290 14-11-2007 17:57:02 2.4 C 3.65 g/m*3 2.4 C 0 km/h
1291 14-11-2007 18:09:02 2.1 C 3.64 g/m*3 2.1 C 0 km/h
1292 14-11-2007 18:21:02 2.2 C 3.66 g/m*3 2.2 C 0 km/h
1293 14-11-2007 18:33:02 2.3 C 3.69 g/m*3 2.3 C 0 km/h
1294 14-11-2007 18:45:01 2.3 C 3.74 g/m*3 2.3 C 0 km/h
1295 14-11-2007 18:57:01 2.3 C 3.8 g/m*3 2.3 C 0 km/h
1296 14-11-2007 19:09:01 2.2 C 3.77 g/m*3 2.2 C 0 km/h
1297 14-11-2007 19:21:02 2.1 C 3.8 g/m*3 2.1 C 0 km/h
1298 14-11-2007 19:33:02 2.3 C 3.8 g/m*3 2.3 C 0 km/h
1299 14-11-2007 19:45:02 2.3 C 3.8 g/m*3 2.3 C 0 km/h
1300 14-11-2007 19:57:02 2.2 C 3.83 g/m*3 2.2 C 0 km/h
Sensor: Nr:Datum:Temp:Abs-Feuchte:Windchill:Wind:
Aussen-T/F 1301 14-11-2007 20:09:01 2.1 C 3.86 g/m*3 2.1 C 0 km/h
1302 14-11-2007 20:21:02 2 C 3.95 g/m*3 2 C 0 km/h
1303 14-11-2007 20:33:02 2 C 4 g/m*3 2 C 0 km/h
1304 14-11-2007 20:45:02 1.8 C 4.06 g/m*3 1.8 C 0 km/h
1305 14-11-2007 20:57:02 1.9 C 4.08 g/m*3 1.9 C 0 km/h
1306 14-11-2007 21:09:02 1.9 C 3.97 g/m*3 1.9 C 0 km/h
1307 14-11-2007 21:21:02 1.6 C 3.89 g/m*3 1.6 C 0 km/h
1308 14-11-2007 21:33:02 1.6 C 3.84 g/m*3 1.6 C 0 km/h
1309 14-11-2007 21:45:02 1.5 C 3.81 g/m*3 1.5 C 0 km/h
1310 14-11-2007 21:57:02 1.4 C 3.84 g/m*3 1.4 C 0 km/h
1311 14-11-2007 22:09:02 0.9 C 3.81 g/m*3 0.9 C 0 km/h
1312 14-11-2007 22:21:01 0.8 C 3.89 g/m*3 0.8 C 0 km/h
1313 14-11-2007 22:33:01 0.7 C 3.92 g/m*3 0.7 C 0 km/h
1314 14-11-2007 22:45:02 0.8 C 3.99 g/m*3 0.8 C 0 km/h
1315 14-11-2007 22:57:02 1 C 4.05 g/m*3 1 C 0 km/h
1316 14-11-2007 23:09:02 0.9 C 4.02 g/m*3 0.9 C 0 km/h
1317 14-11-2007 23:21:02 0.9 C 4.07 g/m*3 0.9 C 0 km/h
1318 14-11-2007 23:33:02 0.8 C 3.99 g/m*3 0.8 C 0 km/h
1319 14-11-2007 23:45:02 1 C 4.05 g/m*3 1 C 0 km/h
1320 14-11-2007 23:57:02 0.9 C 4.07 g/m*3 0.9 C 0 km/h
1321 15-11-2007 00:09:02 0.6 C 3.99 g/m*3 0.6 C 0 km/h
1322 15-11-2007 00:21:02 0.3 C 3.96 g/m*3 0.3 C 0 km/h
1323 15-11-2007 00:33:02 0.3 C 4.01 g/m*3 0.3 C 0 km/h
1324 15-11-2007 00:45:02 0.4 C 4.03 g/m*3 0.4 C 0 km/h
1325 15-11-2007 00:57:02 0.4 C 3.98 g/m*3 0.4 C 0 km/h
Sensor: Nr:Datum:Temp:Abs-Feuchte:Windchill:Wind:
Aussen-T/F 1326 15-11-2007 01:09:02 0.3 C 4.01 g/m*3 0.3 C 0 km/h
1327 15-11-2007 01:21:02 0.4 C 4.03 g/m*3 0.4 C 0 km/h
1328 15-11-2007 01:33:02 0.4 C 3.98 g/m*3 0.4 C 0 km/h
1329 15-11-2007 01:45:01 0.5 C 4.01 g/m*3 0.5 C 0 km/h
1330 15-11-2007 01:57:01 0.6 C 4.04 g/m*3 0.6 C 0 km/h
1331 15-11-2007 02:09:02 0.6 C 4.04 g/m*3 0.6 C 0 km/h
1332 15-11-2007 02:21:02 0.7 C 4.07 g/m*3 0.7 C 0 km/h
1333 15-11-2007 02:33:02 0.8 C 4.04 g/m*3 0.8 C 0 km/h
1334 15-11-2007 02:46:03 0.8 C 4.04 g/m*3 0.8 C 0 km/h
1335 15-11-2007 02:58:03 0.7 C 4.02 g/m*3 0.7 C 0 km/h
1336 15-11-2007 03:10:03 0.4 C 3.93 g/m*3 0.4 C 0 km/h
1337 15-11-2007 03:22:03 0.2 C 3.93 g/m*3 0.2 C 0 km/h
1338 15-11-2007 03:34:02 0.4 C 4.03 g/m*3 0.4 C 0 km/h
1339 15-11-2007 03:46:02 0.2 C 3.93 g/m*3 0.2 C 0 km/h
1340 15-11-2007 03:58:02 0.2 C 3.98 g/m*3 0.2 C 0 km/h
1341 15-11-2007 04:10:03 0.2 C 3.98 g/m*3 0.2 C 0 km/h
1342 15-11-2007 04:22:03 0.2 C 3.98 g/m*3 0.2 C 0 km/h
1343 15-11-2007 04:34:03 0.4 C 4.03 g/m*3 0.4 C 0 km/h
1344 15-11-2007 04:46:01 0.4 C 3.98 g/m*3 0.4 C 0 km/h
1345 15-11-2007 04:58:01 0.4 C 3.98 g/m*3 0.4 C 0 km/h
1346 15-11-2007 05:10:01 0.3 C 3.96 g/m*3 0.3 C 0 km/h
1347 15-11-2007 05:22:01 0.3 C 3.96 g/m*3 0.3 C 0 km/h
1348 15-11-2007 05:34:01 0.4 C 3.98 g/m*3 0.4 C 0 km/h
1349 15-11-2007 05:46:02 0.5 C 4.01 g/m*3 0.5 C 0 km/h
1350 15-11-2007 05:58:02 0.5 C 4.01 g/m*3 0.5 C 0 km/h
Sensor: Nr:Datum:Temp:Abs-Feuchte:Windchill:Wind:
Aussen-T/F 1351 15-11-2007 06:10:02 0.5 C 3.96 g/m*3 0.5 C 0 km/h
1352 15-11-2007 06:22:02 0.3 C 3.86 g/m*3 0.3 C 0 km/h
1353 15-11-2007 06:34:02 0 C 3.83 g/m*3 0 C 0 km/h
1354 15-11-2007 06:46:01 0.4 C 3.88 g/m*3 0.4 C 0 km/h
1355 15-11-2007 06:58:01 0.7 C 3.76 g/m*3 0.7 C 0 km/h
1356 15-11-2007 07:10:01 0.6 C 3.74 g/m*3 0.6 C 0 km/h
1357 15-11-2007 07:22:02 0.6 C 3.79 g/m*3 0.6 C 0 km/h
1358 15-11-2007 07:34:02 0.5 C 3.76 g/m*3 0.5 C 0 km/h
1359 15-11-2007 07:46:02 0.5 C 3.76 g/m*3 0.5 C 0 km/h
1360 15-11-2007 07:58:02 0.6 C 3.79 g/m*3 0.6 C 0 km/h
1361 15-11-2007 08:10:03 0.6 C 3.79 g/m*3 0.6 C 0 km/h
1362 15-11-2007 08:22:03 0.7 C 3.76 g/m*3 0.7 C 0 km/h
1363 15-11-2007 08:34:03 0.7 C 3.76 g/m*3 0.7 C 0 km/h
1364 15-11-2007 08:46:02 0.7 C 3.81 g/m*3 0.7 C 0 km/h
1365 15-11-2007 08:58:02 0.8 C 3.84 g/m*3 0.8 C 0 km/h
1366 15-11-2007 09:10:02 0.8 C 3.84 g/m*3 0.8 C 0 km/h
1367 15-11-2007 09:22:02 0.8 C 3.79 g/m*3 0.8 C 0 km/h
1368 15-11-2007 09:34:02 1 C 3.84 g/m*3 1 C 0 km/h
1369 15-11-2007 09:46:01 1.1 C 3.87 g/m*3 1.1 C 0 km/h
1370 15-11-2007 09:58:01 1.3 C 3.92 g/m*3 1.3 C 0 km/h
1371 15-11-2007 10:10:01 1.4 C 3.84 g/m*3 1.4 C 0 km/h
1372 15-11-2007 10:22:01 1.5 C 3.87 g/m*3 1.5 C 0 km/h
1373 15-11-2007 10:34:01 1.7 C 3.87 g/m*3 1.7 C 0 km/h
1374 15-11-2007 10:46:02 1.8 C 3.89 g/m*3 1.8 C 0 km/h
1375 15-11-2007 10:58:02 2.3 C 3.91 g/m*3 2.3 C 0 km/h
Sensor: Nr:Datum:Temp:Abs-Feuchte:Windchill:Wind:
Aussen-T/F 1376 15-11-2007 11:10:02 3 C 3.92 g/m*3 3 C 0 km/h
1377 15-11-2007 11:22:02 3.1 C 3.77 g/m*3 3.1 C 0 km/h
1378 15-11-2007 11:34:02 2.4 C 3.71 g/m*3 2.4 C 0 km/h
1379 15-11-2007 11:46:02 2.7 C 3.9 g/m*3 2.7 C 0 km/h
1380 15-11-2007 11:58:02 3.3 C 3.88 g/m*3 3.3 C 0 km/h
1381 15-11-2007 12:10:02 3.3 C 3.64 g/m*3 3.3 C 0 km/h
1382 15-11-2007 12:22:02 3.9 C 3.79 g/m*3 3.9 C 0 km/h
1383 15-11-2007 12:34:02 4.5 C 3.75 g/m*3 4.5 C 0 km/h
1384 15-11-2007 12:46:03 5.1 C 3.63 g/m*3 5.1 C 0 km/h
1385 15-11-2007 12:58:03 4.1 C 3.46 g/m*3 4.1 C 0 km/h
1386 15-11-2007 13:10:03 4.6 C 3.51 g/m*3 4.6 C 0 km/h
1387 15-11-2007 13:22:03 5.4 C 3.49 g/m*3 5.4 C 0 km/h
1388 15-11-2007 13:34:03 6.2 C 3.38 g/m*3 6.2 C 0 km/h
1389 15-11-2007 13:46:02 6.6 C 3.17 g/m*3 6.6 C 0 km/h
1390 15-11-2007 13:58:02 4.7 C 3.33 g/m*3 4.7 C 0 km/h
1391 15-11-2007 14:10:02 4.5 C 3.42 g/m*3 4.5 C 0 km/h
1392 15-11-2007 14:22:02 4.6 C 3.57 g/m*3 4.6 C 0 km/h
1393 15-11-2007 14:34:02 4.4 C 3.46 g/m*3 4.4 C 0 km/h
1394 15-11-2007 14:46:01 4.4 C 3.53 g/m*3 4.4 C 0 km/h
1395 15-11-2007 14:58:01 4.3 C 3.44 g/m*3 4.3 C 0 km/h
1396 15-11-2007 15:10:01 3.7 C 3.74 g/m*3 3.7 C 0 km/h
1397 15-11-2007 15:22:02 3.6 C 3.9 g/m*3 3.6 C 0 km/h
1398 15-11-2007 15:34:02 3.6 C 3.9 g/m*3 3.6 C 0 km/h
1399 15-11-2007 15:46:03 3.2 C 3.86 g/m*3 3.2 C 0 km/h
1400 15-11-2007 15:58:03 3.2 C 3.98 g/m*3 3.2 C 0 km/h
Sensor: Nr:Datum:Temp:Abs-Feuchte:Windchill:Wind:
Aussen-T/F 1401 15-11-2007 16:10:03 3.2 C 4.04 g/m*3 3.2 C 0 km/h
1402 15-11-2007 16:22:03 3 C 3.98 g/m*3 3 C 0 km/h
1403 15-11-2007 16:34:03 2.9 C 4.07 g/m*3 2.9 C 0 km/h
1404 15-11-2007 16:46:02 2.8 C 4.11 g/m*3 2.8 C 0 km/h
1405 15-11-2007 16:58:02 2.8 C 4.11 g/m*3 2.8 C 0 km/h
1406 15-11-2007 17:10:02 2.9 C 3.78 g/m*3 2.9 C 0 km/h
1407 15-11-2007 17:22:02 2.9 C 3.48 g/m*3 2.9 C 0 km/h
1408 15-11-2007 17:34:03 2.9 C 3.43 g/m*3 2.9 C 0 km/h
1409 15-11-2007 17:46:02 2.6 C 3.36 g/m*3 2.6 C 0 km/h
1410 15-11-2007 17:58:02 2.1 C 3.36 g/m*3 2.1 C 0 km/h
1411 15-11-2007 18:10:02 1.5 C 3.44 g/m*3 1.5 C 0 km/h
1412 15-11-2007 18:22:03 0.8 C 3.58 g/m*3 0.8 C 0 km/h
1413 15-11-2007 18:34:03 0.5 C 3.61 g/m*3 0.5 C 0 km/h
1414 15-11-2007 18:46:01 0.4 C 3.64 g/m*3 0.4 C 0 km/h
1415 15-11-2007 18:58:01 0.4 C 3.69 g/m*3 0.4 C 0 km/h
1416 15-11-2007 19:10:01 0.2 C 3.64 g/m*3 0.2 C 0 km/h
1417 15-11-2007 19:22:02 0.1 C 3.66 g/m*3 0.1 C 0 km/h
1418 15-11-2007 19:34:02 0 C 3.63 g/m*3 0 C 0 km/h
1419 15-11-2007 19:46:03 -0.1 C 3.66 g/m*3 -0.1 C 0 km/h
1420 15-11-2007 19:58:03 0.2 C 3.78 g/m*3 0.2 C 0 km/h
1421 15-11-2007 20:10:02 0.3 C 3.81 g/m*3 0.3 C 0 km/h
1422 15-11-2007 20:22:02 0.5 C 3.81 g/m*3 0.5 C 0 km/h
1423 15-11-2007 20:34:02 0.5 C 3.81 g/m*3 0.5 C 0 km/h
1424 15-11-2007 20:46:02 0.4 C 3.74 g/m*3 0.4 C 0 km/h
1425 15-11-2007 20:58:03 0.1 C 3.66 g/m*3 0.1 C 0 km/h
Sensor: Nr:Datum:Temp:Abs-Feuchte:Windchill:Wind:
Aussen-T/F 1426 15-11-2007 21:10:02 0 C 3.68 g/m*3 0 C 0 km/h
1427 15-11-2007 21:22:02 0.3 C 3.81 g/m*3 0.3 C 0 km/h
1428 15-11-2007 21:34:02 0.3 C 3.81 g/m*3 0.3 C 0 km/h
1429 15-11-2007 21:46:01 0.2 C 3.73 g/m*3 0.2 C 0 km/h
1430 15-11-2007 21:58:01 0 C 3.68 g/m*3 0 C 0 km/h
1431 15-11-2007 22:10:02 -0.2 C 3.63 g/m*3 -0.2 C 0 km/h
1432 15-11-2007 22:22:02 -0.5 C 3.6 g/m*3 -0.5 C 0 km/h
1433 15-11-2007 22:34:02 -0.7 C 3.6 g/m*3 -0.7 C 0 km/h
1434 15-11-2007 22:46:02 -0.8 C 3.62 g/m*3 -0.8 C 0 km/h
1435 15-11-2007 22:58:03 -0.9 C 3.64 g/m*3 -0.9 C 0 km/h
1436 15-11-2007 23:10:02 -1.1 C 3.59 g/m*3 -1.1 C 0 km/h
1437 15-11-2007 23:22:02 -1.3 C 3.59 g/m*3 -1.3 C 0 km/h
1438 15-11-2007 23:34:01 -1.6 C 3.55 g/m*3 -1.6 C 0 km/h
1439 15-11-2007 23:46:03 -1.8 C 3.51 g/m*3 -1.8 C 0 km/h
1440 15-11-2007 23:58:03 -1.8 C 3.55 g/m*3 -1.8 C 0 km/h
1441 16-11-2007 00:10:02 -2.1 C 3.47 g/m*3 -2.1 C 0 km/h
1442 16-11-2007 00:22:03 -1.9 C 3.61 g/m*3 -1.9 C 0 km/h
1443 16-11-2007 00:34:02 -1.6 C 3.73 g/m*3 -1.6 C 0 km/h
1444 16-11-2007 00:46:02 -1.6 C 3.77 g/m*3 -1.6 C 0 km/h
1445 16-11-2007 00:58:02 -1.8 C 3.72 g/m*3 -1.8 C 0 km/h
1446 16-11-2007 01:10:02 -2 C 3.67 g/m*3 -2 C 0 km/h
1447 16-11-2007 01:22:02 -2 C 3.67 g/m*3 -2 C 0 km/h
1448 16-11-2007 01:34:02 -1.9 C 3.69 g/m*3 -1.9 C 0 km/h
1449 16-11-2007 01:46:02 -2.1 C 3.64 g/m*3 -2.1 C 0 km/h
1450 16-11-2007 01:58:02 -2.1 C 3.68 g/m*3 -2.1 C 0 km/h
Sensor: Nr:Datum:Temp:Abs-Feuchte:Windchill:Wind:
Aussen-T/F 1451 16-11-2007 02:10:02 -2.3 C 3.63 g/m*3 -2.3 C 0 km/h
1452 16-11-2007 02:22:02 -2.3 C 3.63 g/m*3 -2.3 C 0 km/h
1453 16-11-2007 02:34:02 -2.4 C 3.65 g/m*3 -2.4 C 0 km/h
1454 16-11-2007 02:47:04 -2.5 C 3.62 g/m*3 -2.5 C 0 km/h
1455 16-11-2007 02:59:04 -2.6 C 3.6 g/m*3 -2.6 C 0 km/h
1456 16-11-2007 03:11:04 -2.6 C 3.6 g/m*3 -2.6 C 0 km/h
1457 16-11-2007 03:23:04 -2.7 C 3.57 g/m*3 -2.7 C 0 km/h
1458 16-11-2007 03:35:02 -2.7 C 3.61 g/m*3 -2.7 C 0 km/h
1459 16-11-2007 03:47:02 -3 C 3.54 g/m*3 -3 C 0 km/h
1460 16-11-2007 03:59:02 -2.9 C 3.56 g/m*3 -2.9 C 0 km/h
1461 16-11-2007 04:11:02 -2.8 C 3.59 g/m*3 -2.8 C 0 km/h
1462 16-11-2007 04:23:03 -3 C 3.54 g/m*3 -3 C 0 km/h
1463 16-11-2007 04:35:02 -3 C 3.54 g/m*3 -3 C 0 km/h
1464 16-11-2007 04:47:03 -3.1 C 3.55 g/m*3 -3.1 C 0 km/h
1465 16-11-2007 04:59:03 -3.3 C 3.5 g/m*3 -3.3 C 0 km/h
1466 16-11-2007 05:11:02 -3.4 C 3.47 g/m*3 -3.4 C 0 km/h
1467 16-11-2007 05:23:02 -3.4 C 3.47 g/m*3 -3.4 C 0 km/h
1468 16-11-2007 05:35:02 -3.5 C 3.45 g/m*3 -3.5 C 0 km/h
1469 16-11-2007 05:47:02 -3.6 C 3.43 g/m*3 -3.6 C 0 km/h
1470 16-11-2007 05:59:02 -3.6 C 3.43 g/m*3 -3.6 C 0 km/h
1471 16-11-2007 06:11:02 -3.5 C 3.49 g/m*3 -3.5 C 0 km/h
1472 16-11-2007 06:23:02 -3.5 C 3.49 g/m*3 -3.5 C 0 km/h
1473 16-11-2007 06:35:02 -3.6 C 3.46 g/m*3 -3.6 C 0 km/h
1474 16-11-2007 06:47:02 -3.7 C 3.4 g/m*3 -3.7 C 0 km/h
1475 16-11-2007 06:59:03 -4 C 3.33 g/m*3 -4 C 0 km/h
Sensor: Nr:Datum:Temp:Abs-Feuchte:Windchill:Wind:
Aussen-T/F 1476 16-11-2007 07:11:02 -3.9 C 3.35 g/m*3 -3.9 C 0 km/h
1477 16-11-2007 07:23:02 -3.9 C 3.35 g/m*3 -3.9 C 0 km/h
1478 16-11-2007 07:35:02 -3.9 C 3.35 g/m*3 -3.9 C 0 km/h
1479 16-11-2007 07:47:02 -3.8 C 3.38 g/m*3 -3.8 C 0 km/h
1480 16-11-2007 07:59:02 -3.8 C 3.38 g/m*3 -3.8 C 0 km/h
1481 16-11-2007 08:11:02 -3.8 C 3.38 g/m*3 -3.8 C 0 km/h
1482 16-11-2007 08:23:02 -3.5 C 3.49 g/m*3 -3.5 C 0 km/h
1483 16-11-2007 08:35:02 -3.5 C 3.49 g/m*3 -3.5 C 0 km/h
1484 16-11-2007 08:47:02 -3.4 C 3.47 g/m*3 -3.4 C 0 km/h
1485 16-11-2007 08:59:02 -3.1 C 3.55 g/m*3 -3.1 C 0 km/h
1486 16-11-2007 09:11:01 -2.9 C 3.6 g/m*3 -2.9 C 0 km/h
1487 16-11-2007 09:23:01 -2.6 C 3.72 g/m*3 -2.6 C 0 km/h
1488 16-11-2007 09:35:01 -2.7 C 3.65 g/m*3 -2.7 C 0 km/h
1489 16-11-2007 09:47:02 -2.9 C 3.6 g/m*3 -2.9 C 0 km/h
1490 16-11-2007 09:59:02 -2.7 C 3.65 g/m*3 -2.7 C 0 km/h
1491 16-11-2007 10:11:02 -2.6 C 3.64 g/m*3 -2.6 C 0 km/h
1492 16-11-2007 10:23:02 -2.3 C 3.71 g/m*3 -2.3 C 0 km/h
1493 16-11-2007 10:35:02 -1.7 C 3.83 g/m*3 -1.7 C 0 km/h
1494 16-11-2007 10:47:02 -1.3 C 3.94 g/m*3 -1.3 C 0 km/h
1495 16-11-2007 10:59:02 -1 C 3.98 g/m*3 -1 C 0 km/h
1496 16-11-2007 11:11:02 -0.7 C 3.97 g/m*3 -0.7 C 0 km/h
1497 16-11-2007 11:23:02 -0.7 C 3.83 g/m*3 -0.7 C 0 km/h
1498 16-11-2007 11:35:02 -0.5 C 3.88 g/m*3 -0.5 C 0 km/h
1499 16-11-2007 11:47:02 -0.3 C 3.94 g/m*3 -0.3 C 0 km/h
1500 16-11-2007 11:59:02 -0.2 C 3.87 g/m*3 -0.2 C 0 km/h
Sensor: Nr:Datum:Temp:Abs-Feuchte:Windchill:Wind:
Aussen-T/F 1501 16-11-2007 12:11:02 0.1 C 3.95 g/m*3 0.1 C 0 km/h
1502 16-11-2007 12:23:02 0.5 C 4.01 g/m*3 0.5 C 0 km/h
1503 16-11-2007 12:35:02 0.9 C 3.97 g/m*3 0.9 C 0 km/h
1504 16-11-2007 12:47:02 1.1 C 3.97 g/m*3 1.1 C 0 km/h
1505 16-11-2007 12:59:02 1.8 C 4.06 g/m*3 1.8 C 0 km/h
1506 16-11-2007 13:11:02 1.5 C 3.71 g/m*3 1.5 C 0 km/h
1507 16-11-2007 13:23:02 1.8 C 3.89 g/m*3 1.8 C 0 km/h
1508 16-11-2007 13:35:02 1.9 C 3.81 g/m*3 1.9 C 0 km/h
1509 16-11-2007 13:47:02 2.2 C 3.89 g/m*3 2.2 C 0 km/h
1510 16-11-2007 13:59:02 2.7 C 4.02 g/m*3 2.7 C 0 km/h
1511 16-11-2007 14:11:02 2.7 C 3.96 g/m*3 2.7 C 0 km/h
1512 16-11-2007 14:23:02 2.6 C 3.88 g/m*3 2.6 C 0 km/h
1513 16-11-2007 14:35:02 3.3 C 4.06 g/m*3 3.3 C 0 km/h
1514 16-11-2007 14:47:02 3.3 C 3.82 g/m*3 3.3 C 0 km/h
1515 16-11-2007 14:59:02 3.2 C 3.92 g/m*3 3.2 C 0 km/h
1516 16-11-2007 15:11:02 3 C 3.81 g/m*3 3 C 0 km/h
1517 16-11-2007 15:23:02 2.9 C 3.9 g/m*3 2.9 C 0 km/h
1518 16-11-2007 15:35:02 2.7 C 3.9 g/m*3 2.7 C 0 km/h
1519 16-11-2007 15:47:02 2.5 C 3.97 g/m*3 2.5 C 0 km/h
1520 16-11-2007 15:59:02 2.5 C 4.02 g/m*3 2.5 C 0 km/h
1521 16-11-2007 16:11:02 2.3 C 4.03 g/m*3 2.3 C 0 km/h
1522 16-11-2007 16:23:02 2.1 C 4.03 g/m*3 2.1 C 0 km/h
1523 16-11-2007 16:35:02 2 C 4.06 g/m*3 2 C 0 km/h
1524 16-11-2007 16:47:03 1.6 C 4.06 g/m*3 1.6 C 0 km/h
1525 16-11-2007 16:59:03 1.5 C 4.08 g/m*3 1.5 C 0 km/h
Sensor: Nr:Datum:Temp:Abs-Feuchte:Windchill:Wind:
Aussen-T/F 1526 16-11-2007 17:11:02 1.5 C 4.08 g/m*3 1.5 C 0 km/h
1527 16-11-2007 17:23:02 1.4 C 4.11 g/m*3 1.4 C 0 km/h
1528 16-11-2007 17:35:02 1.4 C 4.11 g/m*3 1.4 C 0 km/h
1529 16-11-2007 17:47:02 1.3 C 4.08 g/m*3 1.3 C 0 km/h
1530 16-11-2007 17:59:02 1.2 C 4.05 g/m*3 1.2 C 0 km/h
1531 16-11-2007 18:11:02 1.1 C 4.08 g/m*3 1.1 C 0 km/h
1532 16-11-2007 18:23:02 1.1 C 4.08 g/m*3 1.1 C 0 km/h
1533 16-11-2007 18:35:03 1 C 4.05 g/m*3 1 C 0 km/h
1534 16-11-2007 18:47:03 1 C 4.1 g/m*3 1 C 0 km/h
1535 16-11-2007 18:59:03 1 C 4.1 g/m*3 1 C 0 km/h
1536 16-11-2007 19:11:02 0.9 C 4.12 g/m*3 0.9 C 0 km/h
1537 16-11-2007 19:23:03 0.9 C 4.12 g/m*3 0.9 C 0 km/h
1538 16-11-2007 19:35:03 0.9 C 4.12 g/m*3 0.9 C 0 km/h
1539 16-11-2007 19:47:03 0.7 C 4.07 g/m*3 0.7 C 0 km/h
1540 16-11-2007 19:59:03 0.7 C 4.12 g/m*3 0.7 C 0 km/h
1541 16-11-2007 20:11:03 0.7 C 4.12 g/m*3 0.7 C 0 km/h
1542 16-11-2007 20:23:02 0.7 C 4.17 g/m*3 0.7 C 0 km/h
1543 16-11-2007 20:35:02 0.8 C 4.15 g/m*3 0.8 C 0 km/h
1544 16-11-2007 20:47:02 1 C 4.15 g/m*3 1 C 0 km/h
1545 16-11-2007 20:59:02 1 C 4.1 g/m*3 1 C 0 km/h
1546 16-11-2007 21:11:02 1 C 4.1 g/m*3 1 C 0 km/h
1547 16-11-2007 21:23:02 1 C 4.1 g/m*3 1 C 0 km/h
1548 16-11-2007 21:35:02 1 C 4.1 g/m*3 1 C 0 km/h
1549 16-11-2007 21:47:02 0.9 C 4.12 g/m*3 0.9 C 0 km/h
1550 16-11-2007 21:59:02 0.9 C 4.18 g/m*3 0.9 C 0 km/h
Sensor: Nr:Datum:Temp:Abs-Feuchte:Windchill:Wind:
Aussen-T/F 1551 16-11-2007 22:11:02 0.8 C 4.2 g/m*3 0.8 C 0 km/h
1552 16-11-2007 22:23:02 0.8 C 4.2 g/m*3 0.8 C 0 km/h
1553 16-11-2007 22:35:02 0.9 C 4.23 g/m*3 0.9 C 0 km/h
1554 16-11-2007 22:47:01 0.9 C 4.18 g/m*3 0.9 C 0 km/h
1555 16-11-2007 22:59:01 0.9 C 4.18 g/m*3 0.9 C 0 km/h
1556 16-11-2007 23:11:01 1 C 4.15 g/m*3 1 C 0 km/h
1557 16-11-2007 23:23:01 0.9 C 4.18 g/m*3 0.9 C 0 km/h
1558 16-11-2007 23:35:01 0.9 C 4.18 g/m*3 0.9 C 0 km/h
1559 16-11-2007 23:47:02 0.9 C 4.18 g/m*3 0.9 C 0 km/h
1560 16-11-2007 23:59:02 1 C 4.2 g/m*3 1 C 0 km/h
1561 17-11-2007 00:11:02 1 C 4.2 g/m*3 1 C 0 km/h
1562 17-11-2007 00:23:03 1 C 4.2 g/m*3 1 C 0 km/h
1563 17-11-2007 00:35:02 1.1 C 4.18 g/m*3 1.1 C 0 km/h
1564 17-11-2007 00:47:02 1.1 C 4.18 g/m*3 1.1 C 0 km/h
1565 17-11-2007 00:59:02 1.1 C 4.18 g/m*3 1.1 C 0 km/h
1566 17-11-2007 01:11:02 1.2 C 4.21 g/m*3 1.2 C 0 km/h
1567 17-11-2007 01:23:01 1.2 C 4.21 g/m*3 1.2 C 0 km/h
1568 17-11-2007 01:35:01 1.3 C 4.19 g/m*3 1.3 C 0 km/h
1569 17-11-2007 01:47:02 1.4 C 4.21 g/m*3 1.4 C 0 km/h
1570 17-11-2007 01:59:02 1.4 C 4.21 g/m*3 1.4 C 0 km/h
1571 17-11-2007 02:11:02 1.4 C 4.16 g/m*3 1.4 C 0 km/h
1572 17-11-2007 02:23:02 1.5 C 4.14 g/m*3 1.5 C 0 km/h
1573 17-11-2007 02:35:02 1.5 C 4.14 g/m*3 1.5 C 0 km/h
1574 17-11-2007 02:48:03 1.5 C 4.14 g/m*3 1.5 C 0 km/h
1575 17-11-2007 03:00:04 1.5 C 4.19 g/m*3 1.5 C 0 km/h
Sensor: Nr:Datum:Temp:Abs-Feuchte:Windchill:Wind:
Aussen-T/F 1576 17-11-2007 03:12:04 1.5 C 4.19 g/m*3 1.5 C 0 km/h
1577 17-11-2007 03:24:04 1.6 C 4.16 g/m*3 1.6 C 0 km/h
1578 17-11-2007 03:36:02 1.6 C 4.22 g/m*3 1.6 C 0 km/h
1579 17-11-2007 03:48:02 1.7 C 4.14 g/m*3 1.7 C 0 km/h
1580 17-11-2007 04:00:02 1.7 C 4.19 g/m*3 1.7 C 0 km/h
1581 17-11-2007 04:12:02 1.7 C 4.14 g/m*3 1.7 C 0 km/h
1582 17-11-2007 04:24:02 1.7 C 4.19 g/m*3 1.7 C 0 km/h
1583 17-11-2007 04:36:02 1.7 C 4.19 g/m*3 1.7 C 0 km/h
1584 17-11-2007 04:48:02 1.7 C 4.19 g/m*3 1.7 C 0 km/h
1585 17-11-2007 05:00:02 1.9 C 4.3 g/m*3 1.9 C 0 km/h
1586 17-11-2007 05:12:01 1.9 C 4.3 g/m*3 1.9 C 0 km/h
1587 17-11-2007 05:24:01 1.9 C 4.25 g/m*3 1.9 C 0 km/h
1588 17-11-2007 05:36:01 1.8 C 4.28 g/m*3 1.8 C 0 km/h
1589 17-11-2007 05:48:02 1.8 C 4.28 g/m*3 1.8 C 0 km/h
1590 17-11-2007 06:00:02 1.9 C 4.3 g/m*3 1.9 C 0 km/h
1591 17-11-2007 06:12:02 1.9 C 4.3 g/m*3 1.9 C 0 km/h
1592 17-11-2007 06:24:02 1.9 C 4.36 g/m*3 1.9 C 0 km/h
1593 17-11-2007 06:36:02 1.9 C 4.36 g/m*3 1.9 C 0 km/h
1594 17-11-2007 06:48:03 1.9 C 4.36 g/m*3 1.9 C 0 km/h
1595 17-11-2007 07:00:03 1.9 C 4.36 g/m*3 1.9 C 0 km/h
1596 17-11-2007 07:12:02 1.9 C 4.36 g/m*3 1.9 C 0 km/h
1597 17-11-2007 07:24:02 1.9 C 4.36 g/m*3 1.9 C 0 km/h
1598 17-11-2007 07:36:02 1.9 C 4.36 g/m*3 1.9 C 0 km/h
1599 17-11-2007 07:48:02 1.9 C 4.36 g/m*3 1.9 C 0 km/h
1600 17-11-2007 08:00:02 2 C 4.39 g/m*3 2 C 0 km/h
Sensor: Nr:Datum:Temp:Abs-Feuchte:Windchill:Wind:
Aussen-T/F 1601 17-11-2007 08:12:02 2 C 4.39 g/m*3 2 C 0 km/h
1602 17-11-2007 08:24:02 2.1 C 4.42 g/m*3 2.1 C 0 km/h
1603 17-11-2007 08:36:02 2.2 C 4.45 g/m*3 2.2 C 0 km/h
1604 17-11-2007 08:48:03 2.2 C 4.45 g/m*3 2.2 C 0 km/h
1605 17-11-2007 09:00:03 2.2 C 4.45 g/m*3 2.2 C 0 km/h
1606 17-11-2007 09:12:02 2.3 C 4.48 g/m*3 2.3 C 0 km/h
1607 17-11-2007 09:24:02 2.3 C 4.42 g/m*3 2.3 C 0 km/h
1608 17-11-2007 09:36:02 2.4 C 4.4 g/m*3 2.4 C 0 km/h
1609 17-11-2007 09:48:02 2.6 C 4.46 g/m*3 2.6 C 0 km/h
1610 17-11-2007 10:00:02 2.7 C 4.49 g/m*3 2.7 C 0 km/h
1611 17-11-2007 10:12:02 2.7 C 4.49 g/m*3 2.7 C 0 km/h
1612 17-11-2007 10:24:02 3 C 4.46 g/m*3 3 C 0 km/h
1613 17-11-2007 10:36:02 3.1 C 4.43 g/m*3 3.1 C 0 km/h
1614 17-11-2007 10:48:02 3.2 C 4.4 g/m*3 3.2 C 0 km/h
1615 17-11-2007 11:00:02 3.3 C 4.43 g/m*3 3.3 C 0 km/h
1616 17-11-2007 11:12:02 3.4 C 4.46 g/m*3 3.4 C 0 km/h
1617 17-11-2007 11:24:02 3.7 C 4.49 g/m*3 3.7 C 0 km/h
1618 17-11-2007 11:36:02 4.1 C 4.48 g/m*3 4.1 C 0 km/h
1619 17-11-2007 11:48:03 4.2 C 4.51 g/m*3 4.2 C 0 km/h
1620 17-11-2007 12:00:03 4.2 C 4.45 g/m*3 4.2 C 0 km/h
1621 17-11-2007 12:12:03 4.4 C 4.51 g/m*3 4.4 C 0 km/h
1622 17-11-2007 12:24:03 4.7 C 4.6 g/m*3 4.7 C 0 km/h
1623 17-11-2007 12:36:03 5.1 C 4.65 g/m*3 5.1 C 0 km/h
1624 17-11-2007 12:48:02 5.4 C 4.67 g/m*3 5.4 C 0 km/h
1625 17-11-2007 13:00:02 5.5 C 4.71 g/m*3 5.5 C 0 km/h
Sensor: Nr:Datum:Temp:Abs-Feuchte:Windchill:Wind:
Aussen-T/F 1626 17-11-2007 13:12:02 5.5 C 4.64 g/m*3 5.5 C 0 km/h
1627 17-11-2007 13:24:02 5.6 C 4.81 g/m*3 5.6 C 0 km/h
1628 17-11-2007 13:36:02 5.7 C 4.77 g/m*3 5.7 C 0 km/h
1629 17-11-2007 13:48:02 6 C 4.86 g/m*3 6 C 0 km/h
1630 17-11-2007 14:00:02 6.3 C 4.96 g/m*3 6.3 C 0 km/h
1631 17-11-2007 14:12:02 6.6 C 4.98 g/m*3 6.6 C 0 km/h
1632 17-11-2007 14:24:02 6.6 C 4.98 g/m*3 6.6 C 0 km/h
1633 17-11-2007 14:36:02 6.5 C 4.95 g/m*3 6.5 C 0 km/h
1634 17-11-2007 14:48:03 6.3 C 4.96 g/m*3 6.3 C 0 km/h
1635 17-11-2007 15:00:03 6.3 C 5.03 g/m*3 6.3 C 0 km/h
1636 17-11-2007 15:12:03 6.3 C 5.03 g/m*3 6.3 C 0 km/h
1637 17-11-2007 15:24:03 6.2 C 5 g/m*3 6.2 C 0 km/h
1638 17-11-2007 15:36:03 6.2 C 5.07 g/m*3 6.2 C 0 km/h
1639 17-11-2007 15:48:01 6 C 5.01 g/m*3 6 C 0 km/h
1640 17-11-2007 16:00:01 5.9 C 5.05 g/m*3 5.9 C 0 km/h
1641 17-11-2007 16:12:01 5.6 C 5.02 g/m*3 5.6 C 0 km/h
1642 17-11-2007 16:24:01 5.4 C 5.02 g/m*3 5.4 C 0 km/h
1643 17-11-2007 16:36:01 5.3 C 5.13 g/m*3 5.3 C 0 km/h
1644 17-11-2007 16:48:03 5 C 5.1 g/m*3 5 C 0 km/h
1645 17-11-2007 17:00:03 4.8 C 5.16 g/m*3 4.8 C 0 km/h
1646 17-11-2007 17:12:03 4.7 C 5.13 g/m*3 4.7 C 0 km/h
1647 17-11-2007 17:24:02 4.6 C 5.16 g/m*3 4.6 C 0 km/h
1648 17-11-2007 17:36:02 4.5 C 5.13 g/m*3 4.5 C 0 km/h
1649 17-11-2007 17:48:02 4.4 C 5.16 g/m*3 4.4 C 0 km/h
1650 17-11-2007 18:00:02 4.3 C 5.12 g/m*3 4.3 C 0 km/h
Sensor: Nr:Datum:Temp:Abs-Feuchte:Windchill:Wind:
Aussen-T/F 1651 17-11-2007 18:12:02 4.3 C 5.19 g/m*3 4.3 C 0 km/h
1652 17-11-2007 18:24:01 4.2 C 5.15 g/m*3 4.2 C 0 km/h
1653 17-11-2007 18:36:02 4.2 C 5.15 g/m*3 4.2 C 0 km/h
1654 17-11-2007 18:48:02 4.2 C 5.15 g/m*3 4.2 C 0 km/h
1655 17-11-2007 19:00:02 4.1 C 5.12 g/m*3 4.1 C 0 km/h
1656 17-11-2007 19:12:02 4 C 5.15 g/m*3 4 C 0 km/h
1657 17-11-2007 19:24:02 4 C 5.15 g/m*3 4 C 0 km/h
1658 17-11-2007 19:36:02 4 C 5.15 g/m*3 4 C 0 km/h
1659 17-11-2007 19:48:02 4.3 C 5.25 g/m*3 4.3 C 0 km/h
1660 17-11-2007 20:00:02 4.1 C 5.18 g/m*3 4.1 C 0 km/h
1661 17-11-2007 20:12:02 4.3 C 5.25 g/m*3 4.3 C 0 km/h
1662 17-11-2007 20:24:02 4 C 5.15 g/m*3 4 C 0 km/h
1663 17-11-2007 20:36:02 4 C 5.15 g/m*3 4 C 0 km/h
1664 17-11-2007 20:48:02 3.9 C 5.18 g/m*3 3.9 C 0 km/h
1665 17-11-2007 21:00:02 4.4 C 5.35 g/m*3 4.4 C 0 km/h
1666 17-11-2007 21:12:02 3.8 C 5.21 g/m*3 3.8 C 0 km/h
1667 17-11-2007 21:24:03 3.7 C 5.17 g/m*3 3.7 C 0 km/h
1668 17-11-2007 21:36:03 3.7 C 5.17 g/m*3 3.7 C 0 km/h
1669 17-11-2007 21:48:02 3.6 C 5.14 g/m*3 3.6 C 0 km/h
1670 17-11-2007 22:00:02 3.6 C 5.14 g/m*3 3.6 C 0 km/h
1671 17-11-2007 22:12:02 3.6 C 5.14 g/m*3 3.6 C 0 km/h
1672 17-11-2007 22:24:02 3.5 C 5.16 g/m*3 3.5 C 0 km/h
1673 17-11-2007 22:36:02 3.5 C 5.16 g/m*3 3.5 C 0 km/h
1674 17-11-2007 22:48:02 3.5 C 5.16 g/m*3 3.5 C 0 km/h
1675 17-11-2007 23:00:02 3.5 C 5.16 g/m*3 3.5 C 0 km/h
Sensor: Nr:Datum:Temp:Abs-Feuchte:Windchill:Wind:
Aussen-T/F 1676 17-11-2007 23:12:01 3.4 C 5.13 g/m*3 3.4 C 0 km/h
1677 17-11-2007 23:24:02 3.4 C 5.13 g/m*3 3.4 C 0 km/h
1678 17-11-2007 23:36:02 3.4 C 5.19 g/m*3 3.4 C 0 km/h
1679 17-11-2007 23:48:02 3.3 C 5.1 g/m*3 3.3 C 0 km/h

Legende:
   Min
   Max


Maximal/Minimal-Werte vom 17.04.2019 - 19.05.2019

Sensor Min Max Avg
Temp
(Aussen-T/F)
2.2 °C
13-05-2019  06:50:00
26.6 °C
24-04-2019  17:05:00
11.51 °C

Die Daten stammen von einer Davis Vantage Pro 2 Wetter-Station und werden unter Linux mit der Software wview2wettercgi und aufbereitet. Alle Angaben erfolgen ohne Gewähr für ihre Vollständigkeit oder Richtigkeit.
Kontakt: Rainer Krienke krienke@uni-koblenz.de . Meine Webseiten an der Uni Koblenz oder privat.
Version: $Revision: 0.78 $